<?xml version="1.0" encoding="UTF-8" standalone="no" ?>
<gpx xmlns="http://www.topografix.com/GPX/1/1" xmlns:xsi="http://www.w3.org/2001/XMLSchema-instance" xsi:schemaLocation="http://www.topografix.com/GPX/1/1 http://www.topografix.com/GPX/1/1/gpx.xsd" version="1.1" creator="VisuGPX - https://www.visugpx.com">
  <metadata>
    <name>F26120 la Baume C. pas de la Croix AM BC</name>
    <desc><![CDATA[File with points/tracks from Locus Map/3.42.0]]></desc>
  </metadata>
  <trk>
    <name><![CDATA[F26120 la Baume C. pas de la Croix AM BC]]></name>
    <extensions>
      <line xmlns="http://www.topografix.com/GPX/gpx_style/0/2">
        <color>FF0000</color>
        <opacity>0.78</opacity>
        <width>3.0</width>
      </line>
    </extensions>
    <trkseg>
      <trkpt lat="44.82368" lon="5.03919">
        <ele>321.18</ele>
        <time>2019-12-04T12:10:27.000Z</time>
      </trkpt>
      <trkpt lat="44.82372" lon="5.03931">
        <ele>321.2</ele>
        <time>2019-12-04T12:10:49.000Z</time>
      </trkpt>
      <trkpt lat="44.82368" lon="5.03944">
        <ele>322.57</ele>
        <time>2019-12-04T12:11:11.000Z</time>
      </trkpt>
      <trkpt lat="44.82361" lon="5.03962">
        <ele>325.01</ele>
        <time>2019-12-04T12:11:21.000Z</time>
      </trkpt>
      <trkpt lat="44.82349" lon="5.03976">
        <ele>327.9</ele>
        <time>2019-12-04T12:11:31.000Z</time>
      </trkpt>
      <trkpt lat="44.8234" lon="5.03968">
        <ele>328.47</ele>
        <time>2019-12-04T12:11:43.000Z</time>
      </trkpt>
      <trkpt lat="44.82328" lon="5.03967">
        <ele>329.44</ele>
        <time>2019-12-04T12:11:54.000Z</time>
      </trkpt>
      <trkpt lat="44.82316" lon="5.03963">
        <ele>329.77</ele>
        <time>2019-12-04T12:12:04.000Z</time>
      </trkpt>
      <trkpt lat="44.82314" lon="5.03976">
        <ele>330.92</ele>
        <time>2019-12-04T12:12:21.000Z</time>
      </trkpt>
      <trkpt lat="44.82316" lon="5.03989">
        <ele>331.97</ele>
        <time>2019-12-04T12:12:31.000Z</time>
      </trkpt>
      <trkpt lat="44.82321" lon="5.04002">
        <ele>332.97</ele>
        <time>2019-12-04T12:12:41.000Z</time>
      </trkpt>
      <trkpt lat="44.82325" lon="5.04015">
        <ele>333.93</ele>
        <time>2019-12-04T12:12:52.000Z</time>
      </trkpt>
      <trkpt lat="44.8233" lon="5.04027">
        <ele>334.72</ele>
        <time>2019-12-04T12:13:02.000Z</time>
      </trkpt>
      <trkpt lat="44.82335" lon="5.04038">
        <ele>335.56</ele>
        <time>2019-12-04T12:13:12.000Z</time>
      </trkpt>
      <trkpt lat="44.82338" lon="5.04052">
        <ele>336.77</ele>
        <time>2019-12-04T12:13:22.000Z</time>
      </trkpt>
      <trkpt lat="44.8234" lon="5.04066">
        <ele>338.24</ele>
        <time>2019-12-04T12:13:33.000Z</time>
      </trkpt>
      <trkpt lat="44.82344" lon="5.04078">
        <ele>339.48</ele>
        <time>2019-12-04T12:13:44.000Z</time>
      </trkpt>
      <trkpt lat="44.8235" lon="5.04088">
        <ele>340.41</ele>
        <time>2019-12-04T12:13:54.000Z</time>
      </trkpt>
      <trkpt lat="44.82353" lon="5.041">
        <ele>341.92</ele>
        <time>2019-12-04T12:14:06.000Z</time>
      </trkpt>
      <trkpt lat="44.82358" lon="5.04111">
        <ele>343.22</ele>
        <time>2019-12-04T12:14:17.000Z</time>
      </trkpt>
      <trkpt lat="44.82362" lon="5.04123">
        <ele>344.83</ele>
        <time>2019-12-04T12:14:28.000Z</time>
      </trkpt>
      <trkpt lat="44.82363" lon="5.04137">
        <ele>347.31</ele>
        <time>2019-12-04T12:14:39.000Z</time>
      </trkpt>
      <trkpt lat="44.82366" lon="5.0415">
        <ele>349.62</ele>
        <time>2019-12-04T12:14:51.000Z</time>
      </trkpt>
      <trkpt lat="44.82365" lon="5.04163">
        <ele>352.51</ele>
        <time>2019-12-04T12:15:04.000Z</time>
      </trkpt>
      <trkpt lat="44.82363" lon="5.04175">
        <ele>355.68</ele>
        <time>2019-12-04T12:15:19.000Z</time>
      </trkpt>
      <trkpt lat="44.82364" lon="5.04189">
        <ele>358.91</ele>
        <time>2019-12-04T12:15:40.000Z</time>
      </trkpt>
      <trkpt lat="44.82367" lon="5.04201">
        <ele>361.33</ele>
        <time>2019-12-04T12:15:51.000Z</time>
      </trkpt>
      <trkpt lat="44.82371" lon="5.04213">
        <ele>363.67</ele>
        <time>2019-12-04T12:16:05.000Z</time>
      </trkpt>
      <trkpt lat="44.82367" lon="5.04225">
        <ele>367.75</ele>
        <time>2019-12-04T12:16:24.000Z</time>
      </trkpt>
      <trkpt lat="44.82368" lon="5.04238">
        <ele>370.88</ele>
        <time>2019-12-04T12:16:41.000Z</time>
      </trkpt>
      <trkpt lat="44.82375" lon="5.04247">
        <ele>371.24</ele>
        <time>2019-12-04T12:16:53.000Z</time>
      </trkpt>
      <trkpt lat="44.82374" lon="5.0426">
        <ele>374.74</ele>
        <time>2019-12-04T12:17:10.000Z</time>
      </trkpt>
      <trkpt lat="44.82378" lon="5.04271">
        <ele>376.32</ele>
        <time>2019-12-04T12:17:29.000Z</time>
      </trkpt>
      <trkpt lat="44.82374" lon="5.04283">
        <ele>380.72</ele>
        <time>2019-12-04T12:17:41.000Z</time>
      </trkpt>
      <trkpt lat="44.82371" lon="5.04296">
        <ele>385.03</ele>
        <time>2019-12-04T12:17:57.000Z</time>
      </trkpt>
      <trkpt lat="44.8237" lon="5.04308">
        <ele>388.33</ele>
        <time>2019-12-04T12:18:10.000Z</time>
      </trkpt>
      <trkpt lat="44.82372" lon="5.04321">
        <ele>390.24</ele>
        <time>2019-12-04T12:18:22.000Z</time>
      </trkpt>
      <trkpt lat="44.82375" lon="5.04335">
        <ele>391.4</ele>
        <time>2019-12-04T12:18:42.000Z</time>
      </trkpt>
      <trkpt lat="44.82369" lon="5.04345">
        <ele>393.63</ele>
        <time>2019-12-04T12:19:03.000Z</time>
      </trkpt>
      <trkpt lat="44.8236" lon="5.0435">
        <ele>395.45</ele>
        <time>2019-12-04T12:19:16.000Z</time>
      </trkpt>
      <trkpt lat="44.8235" lon="5.04354">
        <ele>396.71</ele>
        <time>2019-12-04T12:19:28.000Z</time>
      </trkpt>
      <trkpt lat="44.82345" lon="5.04344">
        <ele>397.56</ele>
        <time>2019-12-04T12:19:43.000Z</time>
      </trkpt>
      <trkpt lat="44.82336" lon="5.04345">
        <ele>398.05</ele>
        <time>2019-12-04T12:19:54.000Z</time>
      </trkpt>
      <trkpt lat="44.8233" lon="5.04334">
        <ele>398.01</ele>
        <time>2019-12-04T12:20:49.000Z</time>
      </trkpt>
      <trkpt lat="44.82325" lon="5.04323">
        <ele>397.02</ele>
        <time>2019-12-04T12:21:01.000Z</time>
      </trkpt>
      <trkpt lat="44.8232" lon="5.0431">
        <ele>394.81</ele>
        <time>2019-12-04T12:21:11.000Z</time>
      </trkpt>
      <trkpt lat="44.82324" lon="5.04321">
        <ele>396.8</ele>
        <time>2019-12-04T12:21:34.000Z</time>
      </trkpt>
      <trkpt lat="44.82331" lon="5.04333">
        <ele>397.96</ele>
        <time>2019-12-04T12:21:44.000Z</time>
      </trkpt>
      <trkpt lat="44.82331" lon="5.04349">
        <ele>397.87</ele>
        <time>2019-12-04T12:21:54.000Z</time>
      </trkpt>
      <trkpt lat="44.82329" lon="5.04364">
        <ele>396.43</ele>
        <time>2019-12-04T12:22:04.000Z</time>
      </trkpt>
      <trkpt lat="44.82334" lon="5.04375">
        <ele>395.12</ele>
        <time>2019-12-04T12:22:15.000Z</time>
      </trkpt>
      <trkpt lat="44.82343" lon="5.04381">
        <ele>394.32</ele>
        <time>2019-12-04T12:22:31.000Z</time>
      </trkpt>
      <trkpt lat="44.82354" lon="5.04385">
        <ele>393.66</ele>
        <time>2019-12-04T12:22:41.000Z</time>
      </trkpt>
      <trkpt lat="44.82365" lon="5.04383">
        <ele>393.37</ele>
        <time>2019-12-04T12:22:51.000Z</time>
      </trkpt>
      <trkpt lat="44.82375" lon="5.0438">
        <ele>392.81</ele>
        <time>2019-12-04T12:23:01.000Z</time>
      </trkpt>
      <trkpt lat="44.82388" lon="5.04376">
        <ele>391.49</ele>
        <time>2019-12-04T12:23:11.000Z</time>
      </trkpt>
      <trkpt lat="44.82401" lon="5.04374">
        <ele>389.96</ele>
        <time>2019-12-04T12:23:21.000Z</time>
      </trkpt>
      <trkpt lat="44.82413" lon="5.04371">
        <ele>388.51</ele>
        <time>2019-12-04T12:23:31.000Z</time>
      </trkpt>
      <trkpt lat="44.82426" lon="5.04366">
        <ele>387.03</ele>
        <time>2019-12-04T12:23:41.000Z</time>
      </trkpt>
      <trkpt lat="44.82438" lon="5.04364">
        <ele>385.87</ele>
        <time>2019-12-04T12:23:51.000Z</time>
      </trkpt>
      <trkpt lat="44.82451" lon="5.04364">
        <ele>385.16</ele>
        <time>2019-12-04T12:24:01.000Z</time>
      </trkpt>
      <trkpt lat="44.82462" lon="5.04371">
        <ele>386.16</ele>
        <time>2019-12-04T12:24:11.000Z</time>
      </trkpt>
      <trkpt lat="44.82471" lon="5.04378">
        <ele>387.22</ele>
        <time>2019-12-04T12:24:21.000Z</time>
      </trkpt>
      <trkpt lat="44.82484" lon="5.04384">
        <ele>388.26</ele>
        <time>2019-12-04T12:24:31.000Z</time>
      </trkpt>
      <trkpt lat="44.82496" lon="5.0439">
        <ele>389.55</ele>
        <time>2019-12-04T12:24:41.000Z</time>
      </trkpt>
      <trkpt lat="44.82506" lon="5.04399">
        <ele>391.14</ele>
        <time>2019-12-04T12:24:51.000Z</time>
      </trkpt>
      <trkpt lat="44.82517" lon="5.04407">
        <ele>392.71</ele>
        <time>2019-12-04T12:25:01.000Z</time>
      </trkpt>
      <trkpt lat="44.82526" lon="5.04417">
        <ele>394.02</ele>
        <time>2019-12-04T12:25:11.000Z</time>
      </trkpt>
      <trkpt lat="44.82532" lon="5.04431">
        <ele>394.24</ele>
        <time>2019-12-04T12:25:21.000Z</time>
      </trkpt>
      <trkpt lat="44.82537" lon="5.04443">
        <ele>393.66</ele>
        <time>2019-12-04T12:25:31.000Z</time>
      </trkpt>
      <trkpt lat="44.82541" lon="5.04461">
        <ele>392.01</ele>
        <time>2019-12-04T12:25:41.000Z</time>
      </trkpt>
      <trkpt lat="44.82545" lon="5.04478">
        <ele>390.48</ele>
        <time>2019-12-04T12:25:51.000Z</time>
      </trkpt>
      <trkpt lat="44.82546" lon="5.04497">
        <ele>389.37</ele>
        <time>2019-12-04T12:26:01.000Z</time>
      </trkpt>
      <trkpt lat="44.82545" lon="5.04515">
        <ele>389.27</ele>
        <time>2019-12-04T12:26:11.000Z</time>
      </trkpt>
      <trkpt lat="44.82544" lon="5.04533">
        <ele>390.3</ele>
        <time>2019-12-04T12:26:21.000Z</time>
      </trkpt>
      <trkpt lat="44.82541" lon="5.04547">
        <ele>390.88</ele>
        <time>2019-12-04T12:26:31.000Z</time>
      </trkpt>
      <trkpt lat="44.82543" lon="5.04561">
        <ele>392.4</ele>
        <time>2019-12-04T12:26:41.000Z</time>
      </trkpt>
      <trkpt lat="44.82551" lon="5.04574">
        <ele>395.31</ele>
        <time>2019-12-04T12:26:51.000Z</time>
      </trkpt>
      <trkpt lat="44.82562" lon="5.04579">
        <ele>398.01</ele>
        <time>2019-12-04T12:27:01.000Z</time>
      </trkpt>
      <trkpt lat="44.82571" lon="5.04585">
        <ele>399.95</ele>
        <time>2019-12-04T12:27:11.000Z</time>
      </trkpt>
      <trkpt lat="44.82581" lon="5.04592">
        <ele>401.33</ele>
        <time>2019-12-04T12:27:21.000Z</time>
      </trkpt>
      <trkpt lat="44.8259" lon="5.04602">
        <ele>401.67</ele>
        <time>2019-12-04T12:27:31.000Z</time>
      </trkpt>
      <trkpt lat="44.82599" lon="5.04614">
        <ele>401.15</ele>
        <time>2019-12-04T12:27:41.000Z</time>
      </trkpt>
      <trkpt lat="44.82608" lon="5.04625">
        <ele>400.5</ele>
        <time>2019-12-04T12:27:51.000Z</time>
      </trkpt>
      <trkpt lat="44.82618" lon="5.04637">
        <ele>399.29</ele>
        <time>2019-12-04T12:28:01.000Z</time>
      </trkpt>
      <trkpt lat="44.82624" lon="5.04649">
        <ele>397.97</ele>
        <time>2019-12-04T12:28:11.000Z</time>
      </trkpt>
      <trkpt lat="44.8263" lon="5.04662">
        <ele>396.77</ele>
        <time>2019-12-04T12:28:21.000Z</time>
      </trkpt>
      <trkpt lat="44.82632" lon="5.04679">
        <ele>395.16</ele>
        <time>2019-12-04T12:28:31.000Z</time>
      </trkpt>
      <trkpt lat="44.82634" lon="5.04696">
        <ele>393.52</ele>
        <time>2019-12-04T12:28:41.000Z</time>
      </trkpt>
      <trkpt lat="44.82633" lon="5.04714">
        <ele>391.84</ele>
        <time>2019-12-04T12:28:51.000Z</time>
      </trkpt>
      <trkpt lat="44.82634" lon="5.04731">
        <ele>390.62</ele>
        <time>2019-12-04T12:29:01.000Z</time>
      </trkpt>
      <trkpt lat="44.82634" lon="5.04748">
        <ele>389.91</ele>
        <time>2019-12-04T12:29:11.000Z</time>
      </trkpt>
      <trkpt lat="44.82632" lon="5.04765">
        <ele>389.75</ele>
        <time>2019-12-04T12:29:21.000Z</time>
      </trkpt>
      <trkpt lat="44.8263" lon="5.04784">
        <ele>390.17</ele>
        <time>2019-12-04T12:29:31.000Z</time>
      </trkpt>
      <trkpt lat="44.82625" lon="5.04801">
        <ele>390.77</ele>
        <time>2019-12-04T12:29:41.000Z</time>
      </trkpt>
      <trkpt lat="44.82619" lon="5.04815">
        <ele>391.34</ele>
        <time>2019-12-04T12:29:51.000Z</time>
      </trkpt>
      <trkpt lat="44.82612" lon="5.04831">
        <ele>391.95</ele>
        <time>2019-12-04T12:30:01.000Z</time>
      </trkpt>
      <trkpt lat="44.82605" lon="5.04847">
        <ele>392.51</ele>
        <time>2019-12-04T12:30:11.000Z</time>
      </trkpt>
      <trkpt lat="44.82601" lon="5.04863">
        <ele>393.4</ele>
        <time>2019-12-04T12:30:21.000Z</time>
      </trkpt>
      <trkpt lat="44.82597" lon="5.04879">
        <ele>394.46</ele>
        <time>2019-12-04T12:30:31.000Z</time>
      </trkpt>
      <trkpt lat="44.82593" lon="5.04894">
        <ele>395.78</ele>
        <time>2019-12-04T12:30:41.000Z</time>
      </trkpt>
      <trkpt lat="44.82588" lon="5.04907">
        <ele>397.06</ele>
        <time>2019-12-04T12:30:51.000Z</time>
      </trkpt>
      <trkpt lat="44.82584" lon="5.04921">
        <ele>398.67</ele>
        <time>2019-12-04T12:31:01.000Z</time>
      </trkpt>
      <trkpt lat="44.82582" lon="5.04936">
        <ele>401.44</ele>
        <time>2019-12-04T12:31:11.000Z</time>
      </trkpt>
      <trkpt lat="44.82581" lon="5.0495">
        <ele>404.69</ele>
        <time>2019-12-04T12:31:21.000Z</time>
      </trkpt>
      <trkpt lat="44.82579" lon="5.04963">
        <ele>407.66</ele>
        <time>2019-12-04T12:31:31.000Z</time>
      </trkpt>
      <trkpt lat="44.82573" lon="5.04972">
        <ele>409.54</ele>
        <time>2019-12-04T12:31:43.000Z</time>
      </trkpt>
      <trkpt lat="44.82565" lon="5.0498">
        <ele>410.71</ele>
        <time>2019-12-04T12:31:54.000Z</time>
      </trkpt>
      <trkpt lat="44.82558" lon="5.04989">
        <ele>412.07</ele>
        <time>2019-12-04T12:32:05.000Z</time>
      </trkpt>
      <trkpt lat="44.82552" lon="5.04999">
        <ele>412.95</ele>
        <time>2019-12-04T12:32:15.000Z</time>
      </trkpt>
      <trkpt lat="44.82547" lon="5.05011">
        <ele>413.2</ele>
        <time>2019-12-04T12:32:25.000Z</time>
      </trkpt>
      <trkpt lat="44.82544" lon="5.05024">
        <ele>412.56</ele>
        <time>2019-12-04T12:32:35.000Z</time>
      </trkpt>
      <trkpt lat="44.8255" lon="5.05036">
        <ele>412.44</ele>
        <time>2019-12-04T12:32:45.000Z</time>
      </trkpt>
      <trkpt lat="44.82557" lon="5.05047">
        <ele>412.86</ele>
        <time>2019-12-04T12:32:55.000Z</time>
      </trkpt>
      <trkpt lat="44.82565" lon="5.05057">
        <ele>413.64</ele>
        <time>2019-12-04T12:33:05.000Z</time>
      </trkpt>
      <trkpt lat="44.82574" lon="5.05069">
        <ele>414.91</ele>
        <time>2019-12-04T12:33:15.000Z</time>
      </trkpt>
      <trkpt lat="44.82583" lon="5.05078">
        <ele>416.25</ele>
        <time>2019-12-04T12:33:25.000Z</time>
      </trkpt>
      <trkpt lat="44.82592" lon="5.05088">
        <ele>417.32</ele>
        <time>2019-12-04T12:33:35.000Z</time>
      </trkpt>
      <trkpt lat="44.82602" lon="5.051">
        <ele>418.05</ele>
        <time>2019-12-04T12:33:45.000Z</time>
      </trkpt>
      <trkpt lat="44.82609" lon="5.05113">
        <ele>417.41</ele>
        <time>2019-12-04T12:33:55.000Z</time>
      </trkpt>
      <trkpt lat="44.82614" lon="5.05127">
        <ele>416.22</ele>
        <time>2019-12-04T12:34:05.000Z</time>
      </trkpt>
      <trkpt lat="44.82621" lon="5.05141">
        <ele>415.81</ele>
        <time>2019-12-04T12:34:15.000Z</time>
      </trkpt>
      <trkpt lat="44.82626" lon="5.05156">
        <ele>415.87</ele>
        <time>2019-12-04T12:34:25.000Z</time>
      </trkpt>
      <trkpt lat="44.82633" lon="5.05171">
        <ele>417.36</ele>
        <time>2019-12-04T12:34:35.000Z</time>
      </trkpt>
      <trkpt lat="44.82638" lon="5.05186">
        <ele>418.76</ele>
        <time>2019-12-04T12:34:45.000Z</time>
      </trkpt>
      <trkpt lat="44.82638" lon="5.05204">
        <ele>418.88</ele>
        <time>2019-12-04T12:34:55.000Z</time>
      </trkpt>
      <trkpt lat="44.82641" lon="5.05219">
        <ele>419.56</ele>
        <time>2019-12-04T12:35:05.000Z</time>
      </trkpt>
      <trkpt lat="44.82643" lon="5.05236">
        <ele>420.33</ele>
        <time>2019-12-04T12:35:15.000Z</time>
      </trkpt>
      <trkpt lat="44.82645" lon="5.05251">
        <ele>421.03</ele>
        <time>2019-12-04T12:35:25.000Z</time>
      </trkpt>
      <trkpt lat="44.82646" lon="5.05267">
        <ele>422.08</ele>
        <time>2019-12-04T12:35:35.000Z</time>
      </trkpt>
      <trkpt lat="44.82642" lon="5.0528">
        <ele>423.19</ele>
        <time>2019-12-04T12:35:45.000Z</time>
      </trkpt>
      <trkpt lat="44.82637" lon="5.05296">
        <ele>424.89</ele>
        <time>2019-12-04T12:35:55.000Z</time>
      </trkpt>
      <trkpt lat="44.82633" lon="5.05309">
        <ele>426.46</ele>
        <time>2019-12-04T12:36:05.000Z</time>
      </trkpt>
      <trkpt lat="44.82629" lon="5.05322">
        <ele>428.21</ele>
        <time>2019-12-04T12:36:15.000Z</time>
      </trkpt>
      <trkpt lat="44.8262" lon="5.05328">
        <ele>429.18</ele>
        <time>2019-12-04T12:36:26.000Z</time>
      </trkpt>
      <trkpt lat="44.82613" lon="5.05336">
        <ele>430.23</ele>
        <time>2019-12-04T12:36:37.000Z</time>
      </trkpt>
      <trkpt lat="44.82605" lon="5.05343">
        <ele>431.2</ele>
        <time>2019-12-04T12:36:48.000Z</time>
      </trkpt>
      <trkpt lat="44.826" lon="5.05353">
        <ele>432.64</ele>
        <time>2019-12-04T12:37:02.000Z</time>
      </trkpt>
      <trkpt lat="44.82594" lon="5.05364">
        <ele>433.87</ele>
        <time>2019-12-04T12:37:13.000Z</time>
      </trkpt>
      <trkpt lat="44.82592" lon="5.05377">
        <ele>435.61</ele>
        <time>2019-12-04T12:37:26.000Z</time>
      </trkpt>
      <trkpt lat="44.82592" lon="5.0539">
        <ele>437.21</ele>
        <time>2019-12-04T12:37:37.000Z</time>
      </trkpt>
      <trkpt lat="44.82592" lon="5.05404">
        <ele>438.65</ele>
        <time>2019-12-04T12:37:49.000Z</time>
      </trkpt>
      <trkpt lat="44.82593" lon="5.05417">
        <ele>439.73</ele>
        <time>2019-12-04T12:38:00.000Z</time>
      </trkpt>
      <trkpt lat="44.82593" lon="5.05429">
        <ele>440.17</ele>
        <time>2019-12-04T12:38:10.000Z</time>
      </trkpt>
      <trkpt lat="44.82592" lon="5.05443">
        <ele>440.13</ele>
        <time>2019-12-04T12:38:21.000Z</time>
      </trkpt>
      <trkpt lat="44.82594" lon="5.05456">
        <ele>440.13</ele>
        <time>2019-12-04T12:38:31.000Z</time>
      </trkpt>
      <trkpt lat="44.82598" lon="5.05468">
        <ele>440.58</ele>
        <time>2019-12-04T12:38:42.000Z</time>
      </trkpt>
      <trkpt lat="44.82605" lon="5.05478">
        <ele>441.57</ele>
        <time>2019-12-04T12:38:52.000Z</time>
      </trkpt>
      <trkpt lat="44.82613" lon="5.05487">
        <ele>443.02</ele>
        <time>2019-12-04T12:39:02.000Z</time>
      </trkpt>
      <trkpt lat="44.8262" lon="5.05495">
        <ele>444.61</ele>
        <time>2019-12-04T12:39:12.000Z</time>
      </trkpt>
      <trkpt lat="44.82624" lon="5.05508">
        <ele>445.9</ele>
        <time>2019-12-04T12:39:22.000Z</time>
      </trkpt>
      <trkpt lat="44.82624" lon="5.05522">
        <ele>446.46</ele>
        <time>2019-12-04T12:39:32.000Z</time>
      </trkpt>
      <trkpt lat="44.82628" lon="5.05534">
        <ele>447.95</ele>
        <time>2019-12-04T12:39:42.000Z</time>
      </trkpt>
      <trkpt lat="44.82633" lon="5.05546">
        <ele>450.13</ele>
        <time>2019-12-04T12:39:52.000Z</time>
      </trkpt>
      <trkpt lat="44.82638" lon="5.05557">
        <ele>452.63</ele>
        <time>2019-12-04T12:40:08.000Z</time>
      </trkpt>
      <trkpt lat="44.82648" lon="5.0556">
        <ele>456.26</ele>
        <time>2019-12-04T12:41:59.000Z</time>
      </trkpt>
      <trkpt lat="44.82656" lon="5.05564">
        <ele>459.56</ele>
        <time>2019-12-04T12:42:12.000Z</time>
      </trkpt>
      <trkpt lat="44.82663" lon="5.05573">
        <ele>462.84</ele>
        <time>2019-12-04T12:42:28.000Z</time>
      </trkpt>
      <trkpt lat="44.8267" lon="5.05582">
        <ele>465.74</ele>
        <time>2019-12-04T12:42:43.000Z</time>
      </trkpt>
      <trkpt lat="44.82676" lon="5.05591">
        <ele>468.49</ele>
        <time>2019-12-04T12:42:56.000Z</time>
      </trkpt>
      <trkpt lat="44.8268" lon="5.05603">
        <ele>470.87</ele>
        <time>2019-12-04T12:43:09.000Z</time>
      </trkpt>
      <trkpt lat="44.82681" lon="5.05616">
        <ele>472.26</ele>
        <time>2019-12-04T12:43:23.000Z</time>
      </trkpt>
      <trkpt lat="44.82686" lon="5.05628">
        <ele>474.64</ele>
        <time>2019-12-04T12:43:37.000Z</time>
      </trkpt>
      <trkpt lat="44.8269" lon="5.05639">
        <ele>476.97</ele>
        <time>2019-12-04T12:43:47.000Z</time>
      </trkpt>
      <trkpt lat="44.82685" lon="5.0565">
        <ele>476.53</ele>
        <time>2019-12-04T12:44:16.000Z</time>
      </trkpt>
      <trkpt lat="44.82685" lon="5.05665">
        <ele>478.13</ele>
        <time>2019-12-04T12:44:29.000Z</time>
      </trkpt>
      <trkpt lat="44.82686" lon="5.05679">
        <ele>480.45</ele>
        <time>2019-12-04T12:44:43.000Z</time>
      </trkpt>
      <trkpt lat="44.82686" lon="5.05692">
        <ele>482.11</ele>
        <time>2019-12-04T12:44:55.000Z</time>
      </trkpt>
      <trkpt lat="44.82685" lon="5.05706">
        <ele>483.83</ele>
        <time>2019-12-04T12:45:06.000Z</time>
      </trkpt>
      <trkpt lat="44.82685" lon="5.0572">
        <ele>485.72</ele>
        <time>2019-12-04T12:45:18.000Z</time>
      </trkpt>
      <trkpt lat="44.82687" lon="5.05733">
        <ele>488.41</ele>
        <time>2019-12-04T12:45:30.000Z</time>
      </trkpt>
      <trkpt lat="44.82689" lon="5.05745">
        <ele>491.19</ele>
        <time>2019-12-04T12:45:45.000Z</time>
      </trkpt>
      <trkpt lat="44.82687" lon="5.0576">
        <ele>492.37</ele>
        <time>2019-12-04T12:45:57.000Z</time>
      </trkpt>
      <trkpt lat="44.82686" lon="5.05773">
        <ele>493.92</ele>
        <time>2019-12-04T12:46:11.000Z</time>
      </trkpt>
      <trkpt lat="44.82688" lon="5.05787">
        <ele>496.56</ele>
        <time>2019-12-04T12:46:27.000Z</time>
      </trkpt>
      <trkpt lat="44.82686" lon="5.058">
        <ele>497.4</ele>
        <time>2019-12-04T12:46:41.000Z</time>
      </trkpt>
      <trkpt lat="44.82686" lon="5.05813">
        <ele>499.55</ele>
        <time>2019-12-04T12:46:55.000Z</time>
      </trkpt>
      <trkpt lat="44.82686" lon="5.05825">
        <ele>501.58</ele>
        <time>2019-12-04T12:47:12.000Z</time>
      </trkpt>
      <trkpt lat="44.82686" lon="5.05839">
        <ele>503.85</ele>
        <time>2019-12-04T12:47:28.000Z</time>
      </trkpt>
      <trkpt lat="44.82683" lon="5.05853">
        <ele>505.94</ele>
        <time>2019-12-04T12:47:44.000Z</time>
      </trkpt>
      <trkpt lat="44.82679" lon="5.05866">
        <ele>507.66</ele>
        <time>2019-12-04T12:48:04.000Z</time>
      </trkpt>
      <trkpt lat="44.82674" lon="5.05877">
        <ele>508.83</ele>
        <time>2019-12-04T12:48:16.000Z</time>
      </trkpt>
      <trkpt lat="44.82674" lon="5.05889">
        <ele>512.48</ele>
        <time>2019-12-04T12:48:30.000Z</time>
      </trkpt>
      <trkpt lat="44.82672" lon="5.05903">
        <ele>515.08</ele>
        <time>2019-12-04T12:48:46.000Z</time>
      </trkpt>
      <trkpt lat="44.82669" lon="5.05916">
        <ele>517.53</ele>
        <time>2019-12-04T12:49:03.000Z</time>
      </trkpt>
      <trkpt lat="44.82667" lon="5.0593">
        <ele>519.9</ele>
        <time>2019-12-04T12:49:17.000Z</time>
      </trkpt>
      <trkpt lat="44.82669" lon="5.05943">
        <ele>522.75</ele>
        <time>2019-12-04T12:49:38.000Z</time>
      </trkpt>
      <trkpt lat="44.82675" lon="5.05953">
        <ele>525.37</ele>
        <time>2019-12-04T12:49:54.000Z</time>
      </trkpt>
      <trkpt lat="44.8268" lon="5.05964">
        <ele>527.25</ele>
        <time>2019-12-04T12:50:06.000Z</time>
      </trkpt>
      <trkpt lat="44.82685" lon="5.05976">
        <ele>528.46</ele>
        <time>2019-12-04T12:50:18.000Z</time>
      </trkpt>
      <trkpt lat="44.82691" lon="5.05987">
        <ele>528.68</ele>
        <time>2019-12-04T12:50:32.000Z</time>
      </trkpt>
      <trkpt lat="44.82696" lon="5.05998">
        <ele>528.1</ele>
        <time>2019-12-04T12:50:45.000Z</time>
      </trkpt>
      <trkpt lat="44.82701" lon="5.06009">
        <ele>527.15</ele>
        <time>2019-12-04T12:50:55.000Z</time>
      </trkpt>
      <trkpt lat="44.82705" lon="5.06021">
        <ele>525.91</ele>
        <time>2019-12-04T12:51:06.000Z</time>
      </trkpt>
      <trkpt lat="44.82705" lon="5.06035">
        <ele>526.12</ele>
        <time>2019-12-04T12:51:17.000Z</time>
      </trkpt>
      <trkpt lat="44.82704" lon="5.06049">
        <ele>526.8</ele>
        <time>2019-12-04T12:51:27.000Z</time>
      </trkpt>
      <trkpt lat="44.82702" lon="5.06063">
        <ele>528.26</ele>
        <time>2019-12-04T12:51:37.000Z</time>
      </trkpt>
      <trkpt lat="44.827" lon="5.06078">
        <ele>529.53</ele>
        <time>2019-12-04T12:51:47.000Z</time>
      </trkpt>
      <trkpt lat="44.82694" lon="5.06088">
        <ele>533.48</ele>
        <time>2019-12-04T12:52:21.000Z</time>
      </trkpt>
      <trkpt lat="44.82689" lon="5.06099">
        <ele>536.8</ele>
        <time>2019-12-04T12:52:34.000Z</time>
      </trkpt>
      <trkpt lat="44.82683" lon="5.0611">
        <ele>539.74</ele>
        <time>2019-12-04T12:52:47.000Z</time>
      </trkpt>
      <trkpt lat="44.82682" lon="5.06124">
        <ele>540.89</ele>
        <time>2019-12-04T12:52:58.000Z</time>
      </trkpt>
      <trkpt lat="44.82682" lon="5.06139">
        <ele>541.44</ele>
        <time>2019-12-04T12:53:08.000Z</time>
      </trkpt>
      <trkpt lat="44.82679" lon="5.06153">
        <ele>543.05</ele>
        <time>2019-12-04T12:53:18.000Z</time>
      </trkpt>
      <trkpt lat="44.8268" lon="5.06165">
        <ele>543.66</ele>
        <time>2019-12-04T12:53:35.000Z</time>
      </trkpt>
      <trkpt lat="44.82679" lon="5.06179">
        <ele>545.37</ele>
        <time>2019-12-04T12:53:45.000Z</time>
      </trkpt>
      <trkpt lat="44.82678" lon="5.06195">
        <ele>547.01</ele>
        <time>2019-12-04T12:53:55.000Z</time>
      </trkpt>
      <trkpt lat="44.82676" lon="5.06208">
        <ele>549.09</ele>
        <time>2019-12-04T12:54:05.000Z</time>
      </trkpt>
      <trkpt lat="44.82674" lon="5.06221">
        <ele>550.77</ele>
        <time>2019-12-04T12:54:19.000Z</time>
      </trkpt>
      <trkpt lat="44.82672" lon="5.06234">
        <ele>552.67</ele>
        <time>2019-12-04T12:54:33.000Z</time>
      </trkpt>
      <trkpt lat="44.8267" lon="5.06247">
        <ele>554.49</ele>
        <time>2019-12-04T12:54:56.000Z</time>
      </trkpt>
      <trkpt lat="44.82666" lon="5.06259">
        <ele>556.25</ele>
        <time>2019-12-04T12:55:12.000Z</time>
      </trkpt>
      <trkpt lat="44.82665" lon="5.06272">
        <ele>558.37</ele>
        <time>2019-12-04T12:55:28.000Z</time>
      </trkpt>
      <trkpt lat="44.82664" lon="5.06285">
        <ele>560.61</ele>
        <time>2019-12-04T12:55:45.000Z</time>
      </trkpt>
      <trkpt lat="44.82664" lon="5.06298">
        <ele>562.95</ele>
        <time>2019-12-04T12:55:59.000Z</time>
      </trkpt>
      <trkpt lat="44.82663" lon="5.06312">
        <ele>565.4</ele>
        <time>2019-12-04T12:56:19.000Z</time>
      </trkpt>
      <trkpt lat="44.8266" lon="5.06325">
        <ele>567.47</ele>
        <time>2019-12-04T12:56:33.000Z</time>
      </trkpt>
      <trkpt lat="44.82657" lon="5.06337">
        <ele>569.2</ele>
        <time>2019-12-04T12:56:44.000Z</time>
      </trkpt>
      <trkpt lat="44.82654" lon="5.0635">
        <ele>570.7</ele>
        <time>2019-12-04T12:56:57.000Z</time>
      </trkpt>
      <trkpt lat="44.82652" lon="5.06363">
        <ele>572.18</ele>
        <time>2019-12-04T12:57:09.000Z</time>
      </trkpt>
      <trkpt lat="44.82653" lon="5.06376">
        <ele>573.94</ele>
        <time>2019-12-04T12:57:22.000Z</time>
      </trkpt>
      <trkpt lat="44.82651" lon="5.06391">
        <ele>575.72</ele>
        <time>2019-12-04T12:57:39.000Z</time>
      </trkpt>
      <trkpt lat="44.82652" lon="5.06404">
        <ele>577.81</ele>
        <time>2019-12-04T12:57:51.000Z</time>
      </trkpt>
      <trkpt lat="44.82653" lon="5.06418">
        <ele>580.44</ele>
        <time>2019-12-04T12:58:07.000Z</time>
      </trkpt>
      <trkpt lat="44.82654" lon="5.06432">
        <ele>583.46</ele>
        <time>2019-12-04T12:58:23.000Z</time>
      </trkpt>
      <trkpt lat="44.82654" lon="5.06447">
        <ele>587.22</ele>
        <time>2019-12-04T12:58:41.000Z</time>
      </trkpt>
      <trkpt lat="44.82657" lon="5.06459">
        <ele>590.47</ele>
        <time>2019-12-04T12:58:58.000Z</time>
      </trkpt>
      <trkpt lat="44.82661" lon="5.06472">
        <ele>593.74</ele>
        <time>2019-12-04T12:59:15.000Z</time>
      </trkpt>
      <trkpt lat="44.82663" lon="5.06485">
        <ele>596.92</ele>
        <time>2019-12-04T12:59:34.000Z</time>
      </trkpt>
      <trkpt lat="44.82665" lon="5.06499">
        <ele>600.09</ele>
        <time>2019-12-04T12:59:53.000Z</time>
      </trkpt>
      <trkpt lat="44.82665" lon="5.06512">
        <ele>602.98</ele>
        <time>2019-12-04T13:00:11.000Z</time>
      </trkpt>
      <trkpt lat="44.82663" lon="5.06525">
        <ele>605.9</ele>
        <time>2019-12-04T13:00:26.000Z</time>
      </trkpt>
      <trkpt lat="44.82664" lon="5.06539">
        <ele>608.86</ele>
        <time>2019-12-04T13:00:50.000Z</time>
      </trkpt>
      <trkpt lat="44.82668" lon="5.06552">
        <ele>610.91</ele>
        <time>2019-12-04T13:01:07.000Z</time>
      </trkpt>
      <trkpt lat="44.8267" lon="5.06565">
        <ele>613.35</ele>
        <time>2019-12-04T13:01:26.000Z</time>
      </trkpt>
      <trkpt lat="44.82671" lon="5.06578">
        <ele>616</ele>
        <time>2019-12-04T13:01:43.000Z</time>
      </trkpt>
      <trkpt lat="44.8267" lon="5.06591">
        <ele>619.22</ele>
        <time>2019-12-04T13:02:01.000Z</time>
      </trkpt>
      <trkpt lat="44.82669" lon="5.06604">
        <ele>622.56</ele>
        <time>2019-12-04T13:02:21.000Z</time>
      </trkpt>
      <trkpt lat="44.82667" lon="5.06617">
        <ele>626.23</ele>
        <time>2019-12-04T13:02:43.000Z</time>
      </trkpt>
      <trkpt lat="44.82664" lon="5.0663">
        <ele>629.65</ele>
        <time>2019-12-04T13:03:02.000Z</time>
      </trkpt>
      <trkpt lat="44.82666" lon="5.06642">
        <ele>632.51</ele>
        <time>2019-12-04T13:04:14.000Z</time>
      </trkpt>
      <trkpt lat="44.82667" lon="5.06655">
        <ele>635.43</ele>
        <time>2019-12-04T13:04:33.000Z</time>
      </trkpt>
      <trkpt lat="44.82666" lon="5.06668">
        <ele>638.33</ele>
        <time>2019-12-04T13:04:52.000Z</time>
      </trkpt>
      <trkpt lat="44.82663" lon="5.0668">
        <ele>640.88</ele>
        <time>2019-12-04T13:05:14.000Z</time>
      </trkpt>
      <trkpt lat="44.8266" lon="5.06692">
        <ele>642.98</ele>
        <time>2019-12-04T13:06:03.000Z</time>
      </trkpt>
      <trkpt lat="44.82655" lon="5.06704">
        <ele>644.7</ele>
        <time>2019-12-04T13:06:24.000Z</time>
      </trkpt>
      <trkpt lat="44.82651" lon="5.06715">
        <ele>646.14</ele>
        <time>2019-12-04T13:06:40.000Z</time>
      </trkpt>
      <trkpt lat="44.82647" lon="5.06727">
        <ele>647.32</ele>
        <time>2019-12-04T13:06:57.000Z</time>
      </trkpt>
      <trkpt lat="44.82646" lon="5.06741">
        <ele>649.61</ele>
        <time>2019-12-04T13:07:12.000Z</time>
      </trkpt>
      <trkpt lat="44.82644" lon="5.06753">
        <ele>651.51</ele>
        <time>2019-12-04T13:07:24.000Z</time>
      </trkpt>
      <trkpt lat="44.82645" lon="5.06766">
        <ele>653.92</ele>
        <time>2019-12-04T13:07:38.000Z</time>
      </trkpt>
      <trkpt lat="44.82644" lon="5.06779">
        <ele>655.97</ele>
        <time>2019-12-04T13:07:51.000Z</time>
      </trkpt>
      <trkpt lat="44.82645" lon="5.06793">
        <ele>658.72</ele>
        <time>2019-12-04T13:08:06.000Z</time>
      </trkpt>
      <trkpt lat="44.82643" lon="5.06807">
        <ele>660.91</ele>
        <time>2019-12-04T13:08:53.000Z</time>
      </trkpt>
      <trkpt lat="44.82644" lon="5.06819">
        <ele>664.18</ele>
        <time>2019-12-04T13:09:11.000Z</time>
      </trkpt>
      <trkpt lat="44.82648" lon="5.06832">
        <ele>668.18</ele>
        <time>2019-12-04T13:09:27.000Z</time>
      </trkpt>
      <trkpt lat="44.82651" lon="5.06844">
        <ele>672.56</ele>
        <time>2019-12-04T13:09:48.000Z</time>
      </trkpt>
      <trkpt lat="44.82657" lon="5.06854">
        <ele>676.89</ele>
        <time>2019-12-04T13:10:01.000Z</time>
      </trkpt>
      <trkpt lat="44.82663" lon="5.06865">
        <ele>681.7</ele>
        <time>2019-12-04T13:10:18.000Z</time>
      </trkpt>
      <trkpt lat="44.8267" lon="5.06873">
        <ele>685.02</ele>
        <time>2019-12-04T13:10:38.000Z</time>
      </trkpt>
      <trkpt lat="44.82677" lon="5.06882">
        <ele>688.56</ele>
        <time>2019-12-04T13:10:55.000Z</time>
      </trkpt>
      <trkpt lat="44.82683" lon="5.06892">
        <ele>692.6</ele>
        <time>2019-12-04T13:11:11.000Z</time>
      </trkpt>
      <trkpt lat="44.8269" lon="5.069">
        <ele>695.5</ele>
        <time>2019-12-04T13:11:28.000Z</time>
      </trkpt>
      <trkpt lat="44.82697" lon="5.06909">
        <ele>698.54</ele>
        <time>2019-12-04T13:12:20.000Z</time>
      </trkpt>
      <trkpt lat="44.82703" lon="5.0692">
        <ele>702.56</ele>
        <time>2019-12-04T13:12:36.000Z</time>
      </trkpt>
      <trkpt lat="44.8271" lon="5.06927">
        <ele>705.19</ele>
        <time>2019-12-04T13:12:49.000Z</time>
      </trkpt>
      <trkpt lat="44.82718" lon="5.06935">
        <ele>707.43</ele>
        <time>2019-12-04T13:13:05.000Z</time>
      </trkpt>
      <trkpt lat="44.82726" lon="5.06942">
        <ele>710.06</ele>
        <time>2019-12-04T13:13:39.000Z</time>
      </trkpt>
      <trkpt lat="44.82734" lon="5.06948">
        <ele>711.96</ele>
        <time>2019-12-04T13:13:53.000Z</time>
      </trkpt>
      <trkpt lat="44.82743" lon="5.06953">
        <ele>713.38</ele>
        <time>2019-12-04T13:14:10.000Z</time>
      </trkpt>
      <trkpt lat="44.82752" lon="5.06956">
        <ele>714.24</ele>
        <time>2019-12-04T13:14:22.000Z</time>
      </trkpt>
      <trkpt lat="44.82761" lon="5.06961">
        <ele>716.55</ele>
        <time>2019-12-04T13:14:38.000Z</time>
      </trkpt>
      <trkpt lat="44.82769" lon="5.06968">
        <ele>719.93</ele>
        <time>2019-12-04T13:14:52.000Z</time>
      </trkpt>
      <trkpt lat="44.82777" lon="5.06976">
        <ele>723.7</ele>
        <time>2019-12-04T13:15:12.000Z</time>
      </trkpt>
      <trkpt lat="44.82785" lon="5.0698">
        <ele>725.7</ele>
        <time>2019-12-04T13:15:28.000Z</time>
      </trkpt>
      <trkpt lat="44.82794" lon="5.06984">
        <ele>728.1</ele>
        <time>2019-12-04T13:15:53.000Z</time>
      </trkpt>
      <trkpt lat="44.82801" lon="5.06992">
        <ele>731.94</ele>
        <time>2019-12-04T13:16:09.000Z</time>
      </trkpt>
      <trkpt lat="44.8281" lon="5.06996">
        <ele>734.15</ele>
        <time>2019-12-04T13:16:25.000Z</time>
      </trkpt>
      <trkpt lat="44.8282" lon="5.07004">
        <ele>737.78</ele>
        <time>2019-12-04T13:16:49.000Z</time>
      </trkpt>
      <trkpt lat="44.82828" lon="5.07012">
        <ele>741.68</ele>
        <time>2019-12-04T13:17:07.000Z</time>
      </trkpt>
      <trkpt lat="44.82836" lon="5.07021">
        <ele>746.41</ele>
        <time>2019-12-04T13:17:27.000Z</time>
      </trkpt>
      <trkpt lat="44.82844" lon="5.07028">
        <ele>749.8</ele>
        <time>2019-12-04T13:17:44.000Z</time>
      </trkpt>
      <trkpt lat="44.82853" lon="5.07036">
        <ele>753</ele>
        <time>2019-12-04T13:18:00.000Z</time>
      </trkpt>
      <trkpt lat="44.82861" lon="5.07042">
        <ele>755.9</ele>
        <time>2019-12-04T13:18:24.000Z</time>
      </trkpt>
      <trkpt lat="44.82867" lon="5.07052">
        <ele>760.59</ele>
        <time>2019-12-04T13:18:43.000Z</time>
      </trkpt>
      <trkpt lat="44.82874" lon="5.0706">
        <ele>764.21</ele>
        <time>2019-12-04T13:19:01.000Z</time>
      </trkpt>
      <trkpt lat="44.82881" lon="5.07069">
        <ele>768.72</ele>
        <time>2019-12-04T13:19:19.000Z</time>
      </trkpt>
      <trkpt lat="44.82889" lon="5.07076">
        <ele>771.28</ele>
        <time>2019-12-04T13:19:33.000Z</time>
      </trkpt>
      <trkpt lat="44.82897" lon="5.07085">
        <ele>774.92</ele>
        <time>2019-12-04T13:19:52.000Z</time>
      </trkpt>
      <trkpt lat="44.82907" lon="5.07092">
        <ele>776.71</ele>
        <time>2019-12-04T13:20:27.000Z</time>
      </trkpt>
      <trkpt lat="44.82915" lon="5.07099">
        <ele>779.54</ele>
        <time>2019-12-04T13:20:42.000Z</time>
      </trkpt>
      <trkpt lat="44.82919" lon="5.07111">
        <ele>784.84</ele>
        <time>2019-12-04T13:20:56.000Z</time>
      </trkpt>
      <trkpt lat="44.82928" lon="5.07118">
        <ele>786.95</ele>
        <time>2019-12-04T13:21:16.000Z</time>
      </trkpt>
      <trkpt lat="44.82937" lon="5.07123">
        <ele>787.2</ele>
        <time>2019-12-04T13:21:37.000Z</time>
      </trkpt>
      <trkpt lat="44.82943" lon="5.07132">
        <ele>790.45</ele>
        <time>2019-12-04T13:21:57.000Z</time>
      </trkpt>
      <trkpt lat="44.8295" lon="5.0714">
        <ele>792.13</ele>
        <time>2019-12-04T13:23:09.000Z</time>
      </trkpt>
      <trkpt lat="44.82958" lon="5.07148">
        <ele>793.92</ele>
        <time>2019-12-04T13:23:32.000Z</time>
      </trkpt>
      <trkpt lat="44.82968" lon="5.07155">
        <ele>794.39</ele>
        <time>2019-12-04T13:23:47.000Z</time>
      </trkpt>
      <trkpt lat="44.82974" lon="5.07165">
        <ele>797.88</ele>
        <time>2019-12-04T13:24:08.000Z</time>
      </trkpt>
      <trkpt lat="44.82983" lon="5.07172">
        <ele>799.32</ele>
        <time>2019-12-04T13:24:42.000Z</time>
      </trkpt>
      <trkpt lat="44.82991" lon="5.07177">
        <ele>800.33</ele>
        <time>2019-12-04T13:26:04.000Z</time>
      </trkpt>
      <trkpt lat="44.83001" lon="5.07183">
        <ele>802.11</ele>
        <time>2019-12-04T13:26:27.000Z</time>
      </trkpt>
      <trkpt lat="44.83008" lon="5.07193">
        <ele>806.92</ele>
        <time>2019-12-04T13:26:43.000Z</time>
      </trkpt>
      <trkpt lat="44.83015" lon="5.07201">
        <ele>810.83</ele>
        <time>2019-12-04T13:26:59.000Z</time>
      </trkpt>
      <trkpt lat="44.83006" lon="5.07203">
        <ele>813.57</ele>
        <time>2019-12-04T13:27:50.000Z</time>
      </trkpt>
      <trkpt lat="44.82997" lon="5.07208">
        <ele>819.28</ele>
        <time>2019-12-04T13:28:33.000Z</time>
      </trkpt>
      <trkpt lat="44.82988" lon="5.07205">
        <ele>819.18</ele>
        <time>2019-12-04T13:28:48.000Z</time>
      </trkpt>
      <trkpt lat="44.82992" lon="5.07218">
        <ele>827.09</ele>
        <time>2019-12-04T13:29:37.000Z</time>
      </trkpt>
      <trkpt lat="44.82999" lon="5.07228">
        <ele>831.9</ele>
        <time>2019-12-04T13:30:07.000Z</time>
      </trkpt>
      <trkpt lat="44.83005" lon="5.07238">
        <ele>837.37</ele>
        <time>2019-12-04T13:30:22.000Z</time>
      </trkpt>
      <trkpt lat="44.83013" lon="5.07246">
        <ele>841.2</ele>
        <time>2019-12-04T13:30:42.000Z</time>
      </trkpt>
      <trkpt lat="44.83021" lon="5.0725">
        <ele>841.65</ele>
        <time>2019-12-04T13:31:04.000Z</time>
      </trkpt>
      <trkpt lat="44.83029" lon="5.07257">
        <ele>844.43</ele>
        <time>2019-12-04T13:31:21.000Z</time>
      </trkpt>
      <trkpt lat="44.83036" lon="5.07266">
        <ele>848.89</ele>
        <time>2019-12-04T13:32:18.000Z</time>
      </trkpt>
      <trkpt lat="44.83044" lon="5.07275">
        <ele>852.62</ele>
        <time>2019-12-04T13:32:34.000Z</time>
      </trkpt>
      <trkpt lat="44.83052" lon="5.07281">
        <ele>855.08</ele>
        <time>2019-12-04T13:32:54.000Z</time>
      </trkpt>
      <trkpt lat="44.83057" lon="5.07291">
        <ele>860.51</ele>
        <time>2019-12-04T13:33:13.000Z</time>
      </trkpt>
      <trkpt lat="44.83066" lon="5.07296">
        <ele>861.82</ele>
        <time>2019-12-04T13:33:34.000Z</time>
      </trkpt>
      <trkpt lat="44.83075" lon="5.073">
        <ele>862.9</ele>
        <time>2019-12-04T13:33:47.000Z</time>
      </trkpt>
      <trkpt lat="44.83085" lon="5.07303">
        <ele>863.58</ele>
        <time>2019-12-04T13:34:03.000Z</time>
      </trkpt>
      <trkpt lat="44.83094" lon="5.07309">
        <ele>865.42</ele>
        <time>2019-12-04T13:34:21.000Z</time>
      </trkpt>
      <trkpt lat="44.83102" lon="5.07316">
        <ele>867.97</ele>
        <time>2019-12-04T13:34:39.000Z</time>
      </trkpt>
      <trkpt lat="44.83111" lon="5.0732">
        <ele>868.91</ele>
        <time>2019-12-04T13:34:52.000Z</time>
      </trkpt>
      <trkpt lat="44.8312" lon="5.07321">
        <ele>868.76</ele>
        <time>2019-12-04T13:35:06.000Z</time>
      </trkpt>
      <trkpt lat="44.83128" lon="5.07329">
        <ele>870.7</ele>
        <time>2019-12-04T13:35:25.000Z</time>
      </trkpt>
      <trkpt lat="44.83135" lon="5.07338">
        <ele>872.12</ele>
        <time>2019-12-04T13:35:42.000Z</time>
      </trkpt>
      <trkpt lat="44.83142" lon="5.07346">
        <ele>872.62</ele>
        <time>2019-12-04T13:35:58.000Z</time>
      </trkpt>
      <trkpt lat="44.83151" lon="5.07346">
        <ele>872.01</ele>
        <time>2019-12-04T13:36:08.000Z</time>
      </trkpt>
      <trkpt lat="44.83161" lon="5.07347">
        <ele>871.61</ele>
        <time>2019-12-04T13:36:23.000Z</time>
      </trkpt>
      <trkpt lat="44.8317" lon="5.07343">
        <ele>871.17</ele>
        <time>2019-12-04T13:36:42.000Z</time>
      </trkpt>
      <trkpt lat="44.83178" lon="5.07337">
        <ele>870.67</ele>
        <time>2019-12-04T13:36:56.000Z</time>
      </trkpt>
      <trkpt lat="44.83186" lon="5.07331">
        <ele>870.1</ele>
        <time>2019-12-04T13:37:07.000Z</time>
      </trkpt>
      <trkpt lat="44.83194" lon="5.07324">
        <ele>869.21</ele>
        <time>2019-12-04T13:37:17.000Z</time>
      </trkpt>
      <trkpt lat="44.83201" lon="5.07316">
        <ele>867.82</ele>
        <time>2019-12-04T13:37:29.000Z</time>
      </trkpt>
      <trkpt lat="44.83208" lon="5.07308">
        <ele>866.41</ele>
        <time>2019-12-04T13:38:09.000Z</time>
      </trkpt>
      <trkpt lat="44.83204" lon="5.0732">
        <ele>869.21</ele>
        <time>2019-12-04T13:41:04.000Z</time>
      </trkpt>
      <trkpt lat="44.83197" lon="5.07328">
        <ele>870.12</ele>
        <time>2019-12-04T13:41:15.000Z</time>
      </trkpt>
      <trkpt lat="44.83187" lon="5.07334">
        <ele>870.6</ele>
        <time>2019-12-04T13:41:25.000Z</time>
      </trkpt>
      <trkpt lat="44.83175" lon="5.07342">
        <ele>871.07</ele>
        <time>2019-12-04T13:41:35.000Z</time>
      </trkpt>
      <trkpt lat="44.83164" lon="5.07349">
        <ele>871.57</ele>
        <time>2019-12-04T13:41:45.000Z</time>
      </trkpt>
      <trkpt lat="44.83156" lon="5.07355">
        <ele>871.98</ele>
        <time>2019-12-04T13:42:03.000Z</time>
      </trkpt>
      <trkpt lat="44.83145" lon="5.07348">
        <ele>872.58</ele>
        <time>2019-12-04T13:42:13.000Z</time>
      </trkpt>
      <trkpt lat="44.83134" lon="5.07346">
        <ele>873.29</ele>
        <time>2019-12-04T13:42:23.000Z</time>
      </trkpt>
      <trkpt lat="44.83125" lon="5.07346">
        <ele>874.23</ele>
        <time>2019-12-04T13:42:35.000Z</time>
      </trkpt>
      <trkpt lat="44.83116" lon="5.0735">
        <ele>875.82</ele>
        <time>2019-12-04T13:42:46.000Z</time>
      </trkpt>
      <trkpt lat="44.83106" lon="5.07354">
        <ele>877.61</ele>
        <time>2019-12-04T13:43:02.000Z</time>
      </trkpt>
      <trkpt lat="44.83097" lon="5.07358">
        <ele>879.49</ele>
        <time>2019-12-04T13:43:15.000Z</time>
      </trkpt>
      <trkpt lat="44.83088" lon="5.0736">
        <ele>881.35</ele>
        <time>2019-12-04T13:43:27.000Z</time>
      </trkpt>
      <trkpt lat="44.83079" lon="5.07365">
        <ele>883.44</ele>
        <time>2019-12-04T13:43:40.000Z</time>
      </trkpt>
      <trkpt lat="44.8307" lon="5.07369">
        <ele>885.6</ele>
        <time>2019-12-04T13:43:54.000Z</time>
      </trkpt>
      <trkpt lat="44.83061" lon="5.07367">
        <ele>887.57</ele>
        <time>2019-12-04T13:44:09.000Z</time>
      </trkpt>
      <trkpt lat="44.83052" lon="5.07371">
        <ele>889.96</ele>
        <time>2019-12-04T13:44:21.000Z</time>
      </trkpt>
      <trkpt lat="44.83042" lon="5.07366">
        <ele>891.9</ele>
        <time>2019-12-04T13:44:38.000Z</time>
      </trkpt>
      <trkpt lat="44.83033" lon="5.07368">
        <ele>894.46</ele>
        <time>2019-12-04T13:44:50.000Z</time>
      </trkpt>
      <trkpt lat="44.83024" lon="5.0737">
        <ele>896.93</ele>
        <time>2019-12-04T13:45:04.000Z</time>
      </trkpt>
      <trkpt lat="44.83015" lon="5.07373">
        <ele>899.45</ele>
        <time>2019-12-04T13:45:19.000Z</time>
      </trkpt>
      <trkpt lat="44.83004" lon="5.07374">
        <ele>902.25</ele>
        <time>2019-12-04T13:45:39.000Z</time>
      </trkpt>
      <trkpt lat="44.82995" lon="5.07376">
        <ele>904.65</ele>
        <time>2019-12-04T13:45:54.000Z</time>
      </trkpt>
      <trkpt lat="44.82986" lon="5.07377">
        <ele>907.03</ele>
        <time>2019-12-04T13:46:10.000Z</time>
      </trkpt>
      <trkpt lat="44.82977" lon="5.07377">
        <ele>909.67</ele>
        <time>2019-12-04T13:46:36.000Z</time>
      </trkpt>
      <trkpt lat="44.82967" lon="5.07375">
        <ele>912.09</ele>
        <time>2019-12-04T13:46:48.000Z</time>
      </trkpt>
      <trkpt lat="44.82958" lon="5.07377">
        <ele>914.79</ele>
        <time>2019-12-04T13:46:59.000Z</time>
      </trkpt>
      <trkpt lat="44.82949" lon="5.07378">
        <ele>917.21</ele>
        <time>2019-12-04T13:47:20.000Z</time>
      </trkpt>
      <trkpt lat="44.8294" lon="5.07373">
        <ele>918.64</ele>
        <time>2019-12-04T13:47:31.000Z</time>
      </trkpt>
      <trkpt lat="44.8293" lon="5.07369">
        <ele>919.99</ele>
        <time>2019-12-04T13:47:41.000Z</time>
      </trkpt>
      <trkpt lat="44.82921" lon="5.07366">
        <ele>921.07</ele>
        <time>2019-12-04T13:47:51.000Z</time>
      </trkpt>
      <trkpt lat="44.82911" lon="5.07363">
        <ele>921.84</ele>
        <time>2019-12-04T13:48:01.000Z</time>
      </trkpt>
      <trkpt lat="44.82901" lon="5.07359">
        <ele>922.1</ele>
        <time>2019-12-04T13:48:11.000Z</time>
      </trkpt>
      <trkpt lat="44.82894" lon="5.0735">
        <ele>921.45</ele>
        <time>2019-12-04T13:48:21.000Z</time>
      </trkpt>
      <trkpt lat="44.82885" lon="5.07346">
        <ele>921.53</ele>
        <time>2019-12-04T13:48:36.000Z</time>
      </trkpt>
      <trkpt lat="44.82877" lon="5.07336">
        <ele>920.39</ele>
        <time>2019-12-04T13:48:46.000Z</time>
      </trkpt>
      <trkpt lat="44.82868" lon="5.07329">
        <ele>919.41</ele>
        <time>2019-12-04T13:48:56.000Z</time>
      </trkpt>
      <trkpt lat="44.82861" lon="5.07321">
        <ele>917.52</ele>
        <time>2019-12-04T13:49:10.000Z</time>
      </trkpt>
      <trkpt lat="44.82856" lon="5.07332">
        <ele>921.25</ele>
        <time>2019-12-04T13:51:43.000Z</time>
      </trkpt>
      <trkpt lat="44.82852" lon="5.0732">
        <ele>917.87</ele>
        <time>2019-12-04T13:52:24.000Z</time>
      </trkpt>
      <trkpt lat="44.82859" lon="5.07329">
        <ele>920.28</ele>
        <time>2019-12-04T13:57:09.000Z</time>
      </trkpt>
      <trkpt lat="44.82868" lon="5.07335">
        <ele>921.06</ele>
        <time>2019-12-04T13:57:29.000Z</time>
      </trkpt>
      <trkpt lat="44.82878" lon="5.07345">
        <ele>922.01</ele>
        <time>2019-12-04T13:57:39.000Z</time>
      </trkpt>
      <trkpt lat="44.82886" lon="5.07351">
        <ele>922.31</ele>
        <time>2019-12-04T13:57:50.000Z</time>
      </trkpt>
      <trkpt lat="44.82893" lon="5.07359">
        <ele>922.76</ele>
        <time>2019-12-04T13:58:01.000Z</time>
      </trkpt>
      <trkpt lat="44.82906" lon="5.07365">
        <ele>922.53</ele>
        <time>2019-12-04T13:58:11.000Z</time>
      </trkpt>
      <trkpt lat="44.82915" lon="5.07369">
        <ele>922.17</ele>
        <time>2019-12-04T13:58:39.000Z</time>
      </trkpt>
      <trkpt lat="44.82924" lon="5.07368">
        <ele>920.9</ele>
        <time>2019-12-04T13:58:58.000Z</time>
      </trkpt>
      <trkpt lat="44.82935" lon="5.07373">
        <ele>919.67</ele>
        <time>2019-12-04T13:59:08.000Z</time>
      </trkpt>
      <trkpt lat="44.82946" lon="5.07376">
        <ele>917.59</ele>
        <time>2019-12-04T13:59:18.000Z</time>
      </trkpt>
      <trkpt lat="44.82956" lon="5.07378">
        <ele>915.38</ele>
        <time>2019-12-04T13:59:28.000Z</time>
      </trkpt>
      <trkpt lat="44.82967" lon="5.07378">
        <ele>912.25</ele>
        <time>2019-12-04T13:59:38.000Z</time>
      </trkpt>
      <trkpt lat="44.82977" lon="5.07379">
        <ele>909.64</ele>
        <time>2019-12-04T13:59:49.000Z</time>
      </trkpt>
      <trkpt lat="44.82987" lon="5.07378">
        <ele>907.05</ele>
        <time>2019-12-04T14:00:00.000Z</time>
      </trkpt>
      <trkpt lat="44.82997" lon="5.07376">
        <ele>904.24</ele>
        <time>2019-12-04T14:00:10.000Z</time>
      </trkpt>
      <trkpt lat="44.83006" lon="5.07373">
        <ele>901.79</ele>
        <time>2019-12-04T14:00:20.000Z</time>
      </trkpt>
      <trkpt lat="44.83015" lon="5.0737">
        <ele>899.22</ele>
        <time>2019-12-04T14:00:31.000Z</time>
      </trkpt>
      <trkpt lat="44.83024" lon="5.07366">
        <ele>896.48</ele>
        <time>2019-12-04T14:00:41.000Z</time>
      </trkpt>
      <trkpt lat="44.83034" lon="5.07369">
        <ele>894.3</ele>
        <time>2019-12-04T14:00:51.000Z</time>
      </trkpt>
      <trkpt lat="44.83044" lon="5.0737">
        <ele>891.95</ele>
        <time>2019-12-04T14:01:03.000Z</time>
      </trkpt>
      <trkpt lat="44.83053" lon="5.07375">
        <ele>889.99</ele>
        <time>2019-12-04T14:01:13.000Z</time>
      </trkpt>
      <trkpt lat="44.83062" lon="5.07375">
        <ele>887.63</ele>
        <time>2019-12-04T14:01:23.000Z</time>
      </trkpt>
      <trkpt lat="44.8307" lon="5.07366">
        <ele>885.21</ele>
        <time>2019-12-04T14:01:33.000Z</time>
      </trkpt>
      <trkpt lat="44.83079" lon="5.07361">
        <ele>883</ele>
        <time>2019-12-04T14:01:44.000Z</time>
      </trkpt>
      <trkpt lat="44.83088" lon="5.07359">
        <ele>881.13</ele>
        <time>2019-12-04T14:01:55.000Z</time>
      </trkpt>
      <trkpt lat="44.83099" lon="5.07355">
        <ele>878.96</ele>
        <time>2019-12-04T14:02:05.000Z</time>
      </trkpt>
      <trkpt lat="44.83109" lon="5.07352">
        <ele>877.07</ele>
        <time>2019-12-04T14:02:15.000Z</time>
      </trkpt>
      <trkpt lat="44.8312" lon="5.07349">
        <ele>875.14</ele>
        <time>2019-12-04T14:02:25.000Z</time>
      </trkpt>
      <trkpt lat="44.8313" lon="5.07347">
        <ele>873.83</ele>
        <time>2019-12-04T14:02:35.000Z</time>
      </trkpt>
      <trkpt lat="44.83142" lon="5.07351">
        <ele>872.98</ele>
        <time>2019-12-04T14:02:45.000Z</time>
      </trkpt>
      <trkpt lat="44.83153" lon="5.07353">
        <ele>872.2</ele>
        <time>2019-12-04T14:02:55.000Z</time>
      </trkpt>
      <trkpt lat="44.83165" lon="5.07353">
        <ele>871.61</ele>
        <time>2019-12-04T14:03:05.000Z</time>
      </trkpt>
      <trkpt lat="44.83173" lon="5.07367">
        <ele>870.72</ele>
        <time>2019-12-04T14:03:15.000Z</time>
      </trkpt>
      <trkpt lat="44.83168" lon="5.07379">
        <ele>869.49</ele>
        <time>2019-12-04T14:03:25.000Z</time>
      </trkpt>
      <trkpt lat="44.8316" lon="5.0739">
        <ele>868.6</ele>
        <time>2019-12-04T14:03:35.000Z</time>
      </trkpt>
      <trkpt lat="44.83152" lon="5.07403">
        <ele>867.92</ele>
        <time>2019-12-04T14:03:45.000Z</time>
      </trkpt>
      <trkpt lat="44.83148" lon="5.0742">
        <ele>867.23</ele>
        <time>2019-12-04T14:03:55.000Z</time>
      </trkpt>
      <trkpt lat="44.83145" lon="5.07439">
        <ele>866.83</ele>
        <time>2019-12-04T14:04:05.000Z</time>
      </trkpt>
      <trkpt lat="44.83143" lon="5.07454">
        <ele>866.21</ele>
        <time>2019-12-04T14:04:15.000Z</time>
      </trkpt>
      <trkpt lat="44.83142" lon="5.07473">
        <ele>865.23</ele>
        <time>2019-12-04T14:04:25.000Z</time>
      </trkpt>
      <trkpt lat="44.83141" lon="5.07492">
        <ele>864.09</ele>
        <time>2019-12-04T14:04:35.000Z</time>
      </trkpt>
      <trkpt lat="44.83139" lon="5.07511">
        <ele>863.22</ele>
        <time>2019-12-04T14:04:45.000Z</time>
      </trkpt>
      <trkpt lat="44.83135" lon="5.0753">
        <ele>863.07</ele>
        <time>2019-12-04T14:04:55.000Z</time>
      </trkpt>
      <trkpt lat="44.83131" lon="5.07547">
        <ele>862.8</ele>
        <time>2019-12-04T14:05:05.000Z</time>
      </trkpt>
      <trkpt lat="44.83125" lon="5.07564">
        <ele>862.67</ele>
        <time>2019-12-04T14:05:15.000Z</time>
      </trkpt>
      <trkpt lat="44.8312" lon="5.07582">
        <ele>861.74</ele>
        <time>2019-12-04T14:05:25.000Z</time>
      </trkpt>
      <trkpt lat="44.83113" lon="5.07602">
        <ele>860.36</ele>
        <time>2019-12-04T14:05:35.000Z</time>
      </trkpt>
      <trkpt lat="44.83104" lon="5.07616">
        <ele>861.24</ele>
        <time>2019-12-04T14:05:45.000Z</time>
      </trkpt>
      <trkpt lat="44.83098" lon="5.07628">
        <ele>861.31</ele>
        <time>2019-12-04T14:05:55.000Z</time>
      </trkpt>
      <trkpt lat="44.83094" lon="5.07643">
        <ele>860.32</ele>
        <time>2019-12-04T14:06:05.000Z</time>
      </trkpt>
      <trkpt lat="44.83091" lon="5.07655">
        <ele>859.55</ele>
        <time>2019-12-04T14:06:16.000Z</time>
      </trkpt>
      <trkpt lat="44.83087" lon="5.07669">
        <ele>859.31</ele>
        <time>2019-12-04T14:06:26.000Z</time>
      </trkpt>
      <trkpt lat="44.83083" lon="5.07688">
        <ele>858.39</ele>
        <time>2019-12-04T14:06:36.000Z</time>
      </trkpt>
      <trkpt lat="44.83081" lon="5.07703">
        <ele>857.68</ele>
        <time>2019-12-04T14:06:46.000Z</time>
      </trkpt>
      <trkpt lat="44.83078" lon="5.07715">
        <ele>857.51</ele>
        <time>2019-12-04T14:06:56.000Z</time>
      </trkpt>
      <trkpt lat="44.83074" lon="5.07731">
        <ele>857.29</ele>
        <time>2019-12-04T14:07:06.000Z</time>
      </trkpt>
      <trkpt lat="44.83072" lon="5.07753">
        <ele>855.71</ele>
        <time>2019-12-04T14:07:16.000Z</time>
      </trkpt>
      <trkpt lat="44.83068" lon="5.0777">
        <ele>854.67</ele>
        <time>2019-12-04T14:07:26.000Z</time>
      </trkpt>
      <trkpt lat="44.83065" lon="5.07786">
        <ele>853.28</ele>
        <time>2019-12-04T14:07:38.000Z</time>
      </trkpt>
      <trkpt lat="44.83064" lon="5.07804">
        <ele>850.93</ele>
        <time>2019-12-04T14:07:48.000Z</time>
      </trkpt>
      <trkpt lat="44.83062" lon="5.07822">
        <ele>848.96</ele>
        <time>2019-12-04T14:07:58.000Z</time>
      </trkpt>
      <trkpt lat="44.83057" lon="5.07837">
        <ele>848.6</ele>
        <time>2019-12-04T14:08:08.000Z</time>
      </trkpt>
      <trkpt lat="44.83053" lon="5.07855">
        <ele>847.3</ele>
        <time>2019-12-04T14:08:18.000Z</time>
      </trkpt>
      <trkpt lat="44.83051" lon="5.07871">
        <ele>845.83</ele>
        <time>2019-12-04T14:08:28.000Z</time>
      </trkpt>
      <trkpt lat="44.83049" lon="5.07884">
        <ele>844.76</ele>
        <time>2019-12-04T14:08:38.000Z</time>
      </trkpt>
      <trkpt lat="44.83046" lon="5.07901">
        <ele>843.19</ele>
        <time>2019-12-04T14:08:48.000Z</time>
      </trkpt>
      <trkpt lat="44.83047" lon="5.0792">
        <ele>840.24</ele>
        <time>2019-12-04T14:08:58.000Z</time>
      </trkpt>
      <trkpt lat="44.83044" lon="5.07936">
        <ele>838.28</ele>
        <time>2019-12-04T14:09:08.000Z</time>
      </trkpt>
      <trkpt lat="44.83042" lon="5.07951">
        <ele>836.26</ele>
        <time>2019-12-04T14:09:18.000Z</time>
      </trkpt>
      <trkpt lat="44.83044" lon="5.07964">
        <ele>833.64</ele>
        <time>2019-12-04T14:10:16.000Z</time>
      </trkpt>
      <trkpt lat="44.83046" lon="5.07977">
        <ele>831.03</ele>
        <time>2019-12-04T14:10:26.000Z</time>
      </trkpt>
      <trkpt lat="44.8305" lon="5.07993">
        <ele>827.82</ele>
        <time>2019-12-04T14:10:36.000Z</time>
      </trkpt>
      <trkpt lat="44.83053" lon="5.0801">
        <ele>824.88</ele>
        <time>2019-12-04T14:10:46.000Z</time>
      </trkpt>
      <trkpt lat="44.83057" lon="5.08024">
        <ele>822.32</ele>
        <time>2019-12-04T14:10:56.000Z</time>
      </trkpt>
      <trkpt lat="44.8306" lon="5.08038">
        <ele>819.81</ele>
        <time>2019-12-04T14:11:06.000Z</time>
      </trkpt>
      <trkpt lat="44.83063" lon="5.08053">
        <ele>817.25</ele>
        <time>2019-12-04T14:11:16.000Z</time>
      </trkpt>
      <trkpt lat="44.83067" lon="5.08069">
        <ele>814.49</ele>
        <time>2019-12-04T14:11:26.000Z</time>
      </trkpt>
      <trkpt lat="44.83071" lon="5.08083">
        <ele>811.77</ele>
        <time>2019-12-04T14:11:36.000Z</time>
      </trkpt>
      <trkpt lat="44.83071" lon="5.081">
        <ele>809.75</ele>
        <time>2019-12-04T14:11:46.000Z</time>
      </trkpt>
      <trkpt lat="44.83072" lon="5.08115">
        <ele>807.76</ele>
        <time>2019-12-04T14:11:56.000Z</time>
      </trkpt>
      <trkpt lat="44.83074" lon="5.0813">
        <ele>805.86</ele>
        <time>2019-12-04T14:12:06.000Z</time>
      </trkpt>
      <trkpt lat="44.83073" lon="5.08146">
        <ele>804.45</ele>
        <time>2019-12-04T14:12:16.000Z</time>
      </trkpt>
      <trkpt lat="44.83075" lon="5.08164">
        <ele>802.22</ele>
        <time>2019-12-04T14:12:26.000Z</time>
      </trkpt>
      <trkpt lat="44.83077" lon="5.08183">
        <ele>799.77</ele>
        <time>2019-12-04T14:12:36.000Z</time>
      </trkpt>
      <trkpt lat="44.83083" lon="5.08197">
        <ele>796.76</ele>
        <time>2019-12-04T14:12:46.000Z</time>
      </trkpt>
      <trkpt lat="44.83092" lon="5.08203">
        <ele>792.77</ele>
        <time>2019-12-04T14:12:56.000Z</time>
      </trkpt>
      <trkpt lat="44.83097" lon="5.08216">
        <ele>790.05</ele>
        <time>2019-12-04T14:13:13.000Z</time>
      </trkpt>
      <trkpt lat="44.83099" lon="5.08229">
        <ele>788.37</ele>
        <time>2019-12-04T14:13:23.000Z</time>
      </trkpt>
      <trkpt lat="44.83106" lon="5.08221">
        <ele>785.37</ele>
        <time>2019-12-04T14:13:44.000Z</time>
      </trkpt>
      <trkpt lat="44.83111" lon="5.08206">
        <ele>783.25</ele>
        <time>2019-12-04T14:13:54.000Z</time>
      </trkpt>
      <trkpt lat="44.83113" lon="5.08189">
        <ele>782.68</ele>
        <time>2019-12-04T14:14:04.000Z</time>
      </trkpt>
      <trkpt lat="44.83116" lon="5.08172">
        <ele>781.34</ele>
        <time>2019-12-04T14:14:14.000Z</time>
      </trkpt>
      <trkpt lat="44.83123" lon="5.08159">
        <ele>777.49</ele>
        <time>2019-12-04T14:14:24.000Z</time>
      </trkpt>
      <trkpt lat="44.83132" lon="5.08147">
        <ele>771.76</ele>
        <time>2019-12-04T14:14:34.000Z</time>
      </trkpt>
      <trkpt lat="44.83137" lon="5.08135">
        <ele>769.11</ele>
        <time>2019-12-04T14:14:44.000Z</time>
      </trkpt>
      <trkpt lat="44.83139" lon="5.08121">
        <ele>768.63</ele>
        <time>2019-12-04T14:14:54.000Z</time>
      </trkpt>
      <trkpt lat="44.83139" lon="5.08107">
        <ele>769.59</ele>
        <time>2019-12-04T14:15:07.000Z</time>
      </trkpt>
      <trkpt lat="44.83137" lon="5.08094">
        <ele>772.33</ele>
        <time>2019-12-04T14:15:18.000Z</time>
      </trkpt>
      <trkpt lat="44.83137" lon="5.0808">
        <ele>773.32</ele>
        <time>2019-12-04T14:15:38.000Z</time>
      </trkpt>
      <trkpt lat="44.83138" lon="5.08067">
        <ele>773.05</ele>
        <time>2019-12-04T14:15:50.000Z</time>
      </trkpt>
      <trkpt lat="44.83138" lon="5.08053">
        <ele>773.34</ele>
        <time>2019-12-04T14:16:03.000Z</time>
      </trkpt>
      <trkpt lat="44.83138" lon="5.08039">
        <ele>773.36</ele>
        <time>2019-12-04T14:16:14.000Z</time>
      </trkpt>
      <trkpt lat="44.83139" lon="5.08025">
        <ele>772.79</ele>
        <time>2019-12-04T14:16:24.000Z</time>
      </trkpt>
      <trkpt lat="44.83142" lon="5.08009">
        <ele>771.38</ele>
        <time>2019-12-04T14:16:34.000Z</time>
      </trkpt>
      <trkpt lat="44.83144" lon="5.07996">
        <ele>770.11</ele>
        <time>2019-12-04T14:16:44.000Z</time>
      </trkpt>
      <trkpt lat="44.83146" lon="5.07982">
        <ele>769.88</ele>
        <time>2019-12-04T14:16:54.000Z</time>
      </trkpt>
      <trkpt lat="44.83149" lon="5.07969">
        <ele>769.03</ele>
        <time>2019-12-04T14:17:04.000Z</time>
      </trkpt>
      <trkpt lat="44.83151" lon="5.07954">
        <ele>768.89</ele>
        <time>2019-12-04T14:17:14.000Z</time>
      </trkpt>
      <trkpt lat="44.83157" lon="5.07944">
        <ele>765.68</ele>
        <time>2019-12-04T14:17:26.000Z</time>
      </trkpt>
      <trkpt lat="44.83167" lon="5.07935">
        <ele>760.83</ele>
        <time>2019-12-04T14:17:36.000Z</time>
      </trkpt>
      <trkpt lat="44.83172" lon="5.07925">
        <ele>759.58</ele>
        <time>2019-12-04T14:17:52.000Z</time>
      </trkpt>
      <trkpt lat="44.83179" lon="5.07914">
        <ele>757.84</ele>
        <time>2019-12-04T14:18:08.000Z</time>
      </trkpt>
      <trkpt lat="44.83188" lon="5.07903">
        <ele>755.89</ele>
        <time>2019-12-04T14:18:18.000Z</time>
      </trkpt>
      <trkpt lat="44.83197" lon="5.07893">
        <ele>754.44</ele>
        <time>2019-12-04T14:18:28.000Z</time>
      </trkpt>
      <trkpt lat="44.83205" lon="5.07885">
        <ele>753.84</ele>
        <time>2019-12-04T14:18:38.000Z</time>
      </trkpt>
      <trkpt lat="44.83212" lon="5.07872">
        <ele>754.96</ele>
        <time>2019-12-04T14:18:48.000Z</time>
      </trkpt>
      <trkpt lat="44.83218" lon="5.0786">
        <ele>756.78</ele>
        <time>2019-12-04T14:18:58.000Z</time>
      </trkpt>
      <trkpt lat="44.83224" lon="5.0785">
        <ele>758.63</ele>
        <time>2019-12-04T14:19:11.000Z</time>
      </trkpt>
      <trkpt lat="44.83231" lon="5.07859">
        <ele>754.89</ele>
        <time>2019-12-04T14:19:22.000Z</time>
      </trkpt>
      <trkpt lat="44.83239" lon="5.07871">
        <ele>750.35</ele>
        <time>2019-12-04T14:19:32.000Z</time>
      </trkpt>
      <trkpt lat="44.83246" lon="5.0788">
        <ele>746.42</ele>
        <time>2019-12-04T14:19:43.000Z</time>
      </trkpt>
      <trkpt lat="44.83251" lon="5.07891">
        <ele>742.18</ele>
        <time>2019-12-04T14:19:53.000Z</time>
      </trkpt>
      <trkpt lat="44.83257" lon="5.07903">
        <ele>737.12</ele>
        <time>2019-12-04T14:20:03.000Z</time>
      </trkpt>
      <trkpt lat="44.83262" lon="5.07916">
        <ele>731.9</ele>
        <time>2019-12-04T14:20:13.000Z</time>
      </trkpt>
      <trkpt lat="44.83268" lon="5.07927">
        <ele>727.06</ele>
        <time>2019-12-04T14:20:24.000Z</time>
      </trkpt>
      <trkpt lat="44.83276" lon="5.07936">
        <ele>723.3</ele>
        <time>2019-12-04T14:20:34.000Z</time>
      </trkpt>
      <trkpt lat="44.83285" lon="5.07939">
        <ele>722.39</ele>
        <time>2019-12-04T14:20:48.000Z</time>
      </trkpt>
      <trkpt lat="44.83295" lon="5.07936">
        <ele>724.97</ele>
        <time>2019-12-04T14:21:00.000Z</time>
      </trkpt>
      <trkpt lat="44.83306" lon="5.07932">
        <ele>727.43</ele>
        <time>2019-12-04T14:21:10.000Z</time>
      </trkpt>
      <trkpt lat="44.83318" lon="5.07927">
        <ele>730.34</ele>
        <time>2019-12-04T14:21:20.000Z</time>
      </trkpt>
      <trkpt lat="44.83329" lon="5.07923">
        <ele>731.2</ele>
        <time>2019-12-04T14:21:31.000Z</time>
      </trkpt>
      <trkpt lat="44.83339" lon="5.0792">
        <ele>729.98</ele>
        <time>2019-12-04T14:21:41.000Z</time>
      </trkpt>
      <trkpt lat="44.83348" lon="5.07914">
        <ele>730.35</ele>
        <time>2019-12-04T14:21:51.000Z</time>
      </trkpt>
      <trkpt lat="44.83357" lon="5.07906">
        <ele>730.97</ele>
        <time>2019-12-04T14:22:08.000Z</time>
      </trkpt>
      <trkpt lat="44.83366" lon="5.07901">
        <ele>729.73</ele>
        <time>2019-12-04T14:22:20.000Z</time>
      </trkpt>
      <trkpt lat="44.83374" lon="5.07893">
        <ele>730.11</ele>
        <time>2019-12-04T14:22:30.000Z</time>
      </trkpt>
      <trkpt lat="44.83383" lon="5.07888">
        <ele>728.46</ele>
        <time>2019-12-04T14:22:42.000Z</time>
      </trkpt>
      <trkpt lat="44.83392" lon="5.07885">
        <ele>726.23</ele>
        <time>2019-12-04T14:22:52.000Z</time>
      </trkpt>
      <trkpt lat="44.83399" lon="5.07876">
        <ele>727.62</ele>
        <time>2019-12-04T14:23:02.000Z</time>
      </trkpt>
      <trkpt lat="44.83408" lon="5.07872">
        <ele>725.8</ele>
        <time>2019-12-04T14:23:26.000Z</time>
      </trkpt>
      <trkpt lat="44.83415" lon="5.07864">
        <ele>726.78</ele>
        <time>2019-12-04T14:23:45.000Z</time>
      </trkpt>
      <trkpt lat="44.83423" lon="5.07857">
        <ele>727.58</ele>
        <time>2019-12-04T14:23:55.000Z</time>
      </trkpt>
      <trkpt lat="44.8343" lon="5.07848">
        <ele>728.75</ele>
        <time>2019-12-04T14:24:05.000Z</time>
      </trkpt>
      <trkpt lat="44.83436" lon="5.07837">
        <ele>730.72</ele>
        <time>2019-12-04T14:24:17.000Z</time>
      </trkpt>
      <trkpt lat="44.83443" lon="5.07826">
        <ele>731.69</ele>
        <time>2019-12-04T14:24:27.000Z</time>
      </trkpt>
      <trkpt lat="44.83451" lon="5.07817">
        <ele>730.44</ele>
        <time>2019-12-04T14:24:42.000Z</time>
      </trkpt>
      <trkpt lat="44.83461" lon="5.07807">
        <ele>728.48</ele>
        <time>2019-12-04T14:24:52.000Z</time>
      </trkpt>
      <trkpt lat="44.83469" lon="5.07799">
        <ele>727.12</ele>
        <time>2019-12-04T14:25:05.000Z</time>
      </trkpt>
      <trkpt lat="44.83478" lon="5.07787">
        <ele>726.74</ele>
        <time>2019-12-04T14:25:15.000Z</time>
      </trkpt>
      <trkpt lat="44.83486" lon="5.07777">
        <ele>725.79</ele>
        <time>2019-12-04T14:25:25.000Z</time>
      </trkpt>
      <trkpt lat="44.83492" lon="5.07765">
        <ele>727.06</ele>
        <time>2019-12-04T14:25:35.000Z</time>
      </trkpt>
      <trkpt lat="44.83501" lon="5.07751">
        <ele>727.06</ele>
        <time>2019-12-04T14:25:45.000Z</time>
      </trkpt>
      <trkpt lat="44.83511" lon="5.07741">
        <ele>724.59</ele>
        <time>2019-12-04T14:25:55.000Z</time>
      </trkpt>
      <trkpt lat="44.8352" lon="5.07727">
        <ele>723.46</ele>
        <time>2019-12-04T14:26:05.000Z</time>
      </trkpt>
      <trkpt lat="44.83528" lon="5.07717">
        <ele>721.49</ele>
        <time>2019-12-04T14:26:15.000Z</time>
      </trkpt>
      <trkpt lat="44.83534" lon="5.07705">
        <ele>721.36</ele>
        <time>2019-12-04T14:26:25.000Z</time>
      </trkpt>
      <trkpt lat="44.8354" lon="5.07689">
        <ele>722.06</ele>
        <time>2019-12-04T14:26:35.000Z</time>
      </trkpt>
      <trkpt lat="44.83545" lon="5.07677">
        <ele>722.02</ele>
        <time>2019-12-04T14:26:45.000Z</time>
      </trkpt>
      <trkpt lat="44.8355" lon="5.0766">
        <ele>722.42</ele>
        <time>2019-12-04T14:26:55.000Z</time>
      </trkpt>
      <trkpt lat="44.83558" lon="5.07647">
        <ele>720.68</ele>
        <time>2019-12-04T14:27:05.000Z</time>
      </trkpt>
      <trkpt lat="44.83564" lon="5.07636">
        <ele>718.71</ele>
        <time>2019-12-04T14:27:16.000Z</time>
      </trkpt>
      <trkpt lat="44.83567" lon="5.07621">
        <ele>719.92</ele>
        <time>2019-12-04T14:27:26.000Z</time>
      </trkpt>
      <trkpt lat="44.83573" lon="5.07608">
        <ele>718.94</ele>
        <time>2019-12-04T14:27:36.000Z</time>
      </trkpt>
      <trkpt lat="44.83577" lon="5.07593">
        <ele>720.09</ele>
        <time>2019-12-04T14:27:46.000Z</time>
      </trkpt>
      <trkpt lat="44.83581" lon="5.07577">
        <ele>720.92</ele>
        <time>2019-12-04T14:27:56.000Z</time>
      </trkpt>
      <trkpt lat="44.83585" lon="5.07559">
        <ele>722.17</ele>
        <time>2019-12-04T14:28:06.000Z</time>
      </trkpt>
      <trkpt lat="44.8359" lon="5.07546">
        <ele>722.23</ele>
        <time>2019-12-04T14:28:16.000Z</time>
      </trkpt>
      <trkpt lat="44.83597" lon="5.0753">
        <ele>722.04</ele>
        <time>2019-12-04T14:28:26.000Z</time>
      </trkpt>
      <trkpt lat="44.83601" lon="5.07516">
        <ele>723.12</ele>
        <time>2019-12-04T14:28:36.000Z</time>
      </trkpt>
      <trkpt lat="44.83607" lon="5.07502">
        <ele>724.06</ele>
        <time>2019-12-04T14:28:46.000Z</time>
      </trkpt>
      <trkpt lat="44.83608" lon="5.07486">
        <ele>727.94</ele>
        <time>2019-12-04T14:28:56.000Z</time>
      </trkpt>
      <trkpt lat="44.83614" lon="5.07473">
        <ele>729.38</ele>
        <time>2019-12-04T14:29:06.000Z</time>
      </trkpt>
      <trkpt lat="44.8362" lon="5.07459">
        <ele>731.89</ele>
        <time>2019-12-04T14:29:16.000Z</time>
      </trkpt>
      <trkpt lat="44.83631" lon="5.0745">
        <ele>731.74</ele>
        <time>2019-12-04T14:29:26.000Z</time>
      </trkpt>
      <trkpt lat="44.83639" lon="5.07443">
        <ele>731.67</ele>
        <time>2019-12-04T14:29:36.000Z</time>
      </trkpt>
      <trkpt lat="44.8365" lon="5.07439">
        <ele>730.21</ele>
        <time>2019-12-04T14:29:46.000Z</time>
      </trkpt>
      <trkpt lat="44.83661" lon="5.07437">
        <ele>728.33</ele>
        <time>2019-12-04T14:29:56.000Z</time>
      </trkpt>
      <trkpt lat="44.83673" lon="5.07438">
        <ele>725.48</ele>
        <time>2019-12-04T14:30:06.000Z</time>
      </trkpt>
      <trkpt lat="44.83685" lon="5.07436">
        <ele>723.74</ele>
        <time>2019-12-04T14:30:16.000Z</time>
      </trkpt>
      <trkpt lat="44.83694" lon="5.07436">
        <ele>722.11</ele>
        <time>2019-12-04T14:30:26.000Z</time>
      </trkpt>
      <trkpt lat="44.83707" lon="5.07428">
        <ele>721.5</ele>
        <time>2019-12-04T14:30:36.000Z</time>
      </trkpt>
      <trkpt lat="44.83718" lon="5.07419">
        <ele>720.98</ele>
        <time>2019-12-04T14:30:46.000Z</time>
      </trkpt>
      <trkpt lat="44.83726" lon="5.07406">
        <ele>720.32</ele>
        <time>2019-12-04T14:30:56.000Z</time>
      </trkpt>
      <trkpt lat="44.83735" lon="5.07395">
        <ele>719.12</ele>
        <time>2019-12-04T14:31:06.000Z</time>
      </trkpt>
      <trkpt lat="44.83741" lon="5.07384">
        <ele>718.02</ele>
        <time>2019-12-04T14:31:16.000Z</time>
      </trkpt>
      <trkpt lat="44.83751" lon="5.07376">
        <ele>716.97</ele>
        <time>2019-12-04T14:31:26.000Z</time>
      </trkpt>
      <trkpt lat="44.83758" lon="5.07368">
        <ele>716.09</ele>
        <time>2019-12-04T14:32:34.000Z</time>
      </trkpt>
      <trkpt lat="44.83761" lon="5.07356">
        <ele>714.75</ele>
        <time>2019-12-04T14:32:52.000Z</time>
      </trkpt>
      <trkpt lat="44.8377" lon="5.07349">
        <ele>714.09</ele>
        <time>2019-12-04T14:34:13.000Z</time>
      </trkpt>
      <trkpt lat="44.83776" lon="5.0734">
        <ele>712.89</ele>
        <time>2019-12-04T14:34:24.000Z</time>
      </trkpt>
      <trkpt lat="44.83784" lon="5.07333">
        <ele>712.09</ele>
        <time>2019-12-04T14:34:34.000Z</time>
      </trkpt>
      <trkpt lat="44.83793" lon="5.07328">
        <ele>711.48</ele>
        <time>2019-12-04T14:34:44.000Z</time>
      </trkpt>
      <trkpt lat="44.83802" lon="5.07326">
        <ele>711.58</ele>
        <time>2019-12-04T14:34:54.000Z</time>
      </trkpt>
      <trkpt lat="44.8381" lon="5.07318">
        <ele>709.52</ele>
        <time>2019-12-04T14:35:08.000Z</time>
      </trkpt>
      <trkpt lat="44.83817" lon="5.07311">
        <ele>706.93</ele>
        <time>2019-12-04T14:35:20.000Z</time>
      </trkpt>
      <trkpt lat="44.83829" lon="5.07306">
        <ele>705.21</ele>
        <time>2019-12-04T14:35:30.000Z</time>
      </trkpt>
      <trkpt lat="44.83839" lon="5.07303">
        <ele>704.01</ele>
        <time>2019-12-04T14:35:42.000Z</time>
      </trkpt>
      <trkpt lat="44.83849" lon="5.07298">
        <ele>701.72</ele>
        <time>2019-12-04T14:35:52.000Z</time>
      </trkpt>
      <trkpt lat="44.83858" lon="5.07294">
        <ele>700.08</ele>
        <time>2019-12-04T14:36:02.000Z</time>
      </trkpt>
      <trkpt lat="44.83868" lon="5.07291">
        <ele>698.88</ele>
        <time>2019-12-04T14:36:12.000Z</time>
      </trkpt>
      <trkpt lat="44.83877" lon="5.07288">
        <ele>697.77</ele>
        <time>2019-12-04T14:36:23.000Z</time>
      </trkpt>
      <trkpt lat="44.83885" lon="5.07281">
        <ele>695.28</ele>
        <time>2019-12-04T14:36:35.000Z</time>
      </trkpt>
      <trkpt lat="44.83893" lon="5.07272">
        <ele>692.48</ele>
        <time>2019-12-04T14:36:45.000Z</time>
      </trkpt>
      <trkpt lat="44.83901" lon="5.07264">
        <ele>689.85</ele>
        <time>2019-12-04T14:36:56.000Z</time>
      </trkpt>
      <trkpt lat="44.83909" lon="5.07256">
        <ele>687.31</ele>
        <time>2019-12-04T14:37:07.000Z</time>
      </trkpt>
      <trkpt lat="44.83917" lon="5.07248">
        <ele>684.47</ele>
        <time>2019-12-04T14:37:17.000Z</time>
      </trkpt>
      <trkpt lat="44.83926" lon="5.07242">
        <ele>681.43</ele>
        <time>2019-12-04T14:37:28.000Z</time>
      </trkpt>
      <trkpt lat="44.83934" lon="5.07234">
        <ele>678.07</ele>
        <time>2019-12-04T14:37:40.000Z</time>
      </trkpt>
      <trkpt lat="44.83943" lon="5.0723">
        <ele>675.43</ele>
        <time>2019-12-04T14:37:53.000Z</time>
      </trkpt>
      <trkpt lat="44.8395" lon="5.07221">
        <ele>672.06</ele>
        <time>2019-12-04T14:38:04.000Z</time>
      </trkpt>
      <trkpt lat="44.83956" lon="5.07211">
        <ele>668.98</ele>
        <time>2019-12-04T14:38:17.000Z</time>
      </trkpt>
      <trkpt lat="44.83964" lon="5.07204">
        <ele>666.98</ele>
        <time>2019-12-04T14:38:27.000Z</time>
      </trkpt>
      <trkpt lat="44.83971" lon="5.07195">
        <ele>665.07</ele>
        <time>2019-12-04T14:38:38.000Z</time>
      </trkpt>
      <trkpt lat="44.83978" lon="5.07187">
        <ele>663.59</ele>
        <time>2019-12-04T14:38:49.000Z</time>
      </trkpt>
      <trkpt lat="44.83986" lon="5.0718">
        <ele>662.4</ele>
        <time>2019-12-04T14:39:00.000Z</time>
      </trkpt>
      <trkpt lat="44.83991" lon="5.07168">
        <ele>660.25</ele>
        <time>2019-12-04T14:39:11.000Z</time>
      </trkpt>
      <trkpt lat="44.83996" lon="5.07158">
        <ele>657.8</ele>
        <time>2019-12-04T14:39:24.000Z</time>
      </trkpt>
      <trkpt lat="44.84001" lon="5.07146">
        <ele>654.6</ele>
        <time>2019-12-04T14:39:37.000Z</time>
      </trkpt>
      <trkpt lat="44.8401" lon="5.07136">
        <ele>650.98</ele>
        <time>2019-12-04T14:39:47.000Z</time>
      </trkpt>
      <trkpt lat="44.84019" lon="5.07126">
        <ele>647.19</ele>
        <time>2019-12-04T14:39:57.000Z</time>
      </trkpt>
      <trkpt lat="44.84029" lon="5.07116">
        <ele>643.77</ele>
        <time>2019-12-04T14:40:07.000Z</time>
      </trkpt>
      <trkpt lat="44.84036" lon="5.07102">
        <ele>641.56</ele>
        <time>2019-12-04T14:40:17.000Z</time>
      </trkpt>
      <trkpt lat="44.84044" lon="5.07091">
        <ele>640.39</ele>
        <time>2019-12-04T14:40:27.000Z</time>
      </trkpt>
      <trkpt lat="44.84047" lon="5.07079">
        <ele>639.79</ele>
        <time>2019-12-04T14:42:00.000Z</time>
      </trkpt>
      <trkpt lat="44.84039" lon="5.07087">
        <ele>640.23</ele>
        <time>2019-12-04T14:42:16.000Z</time>
      </trkpt>
      <trkpt lat="44.8403" lon="5.07093">
        <ele>640.91</ele>
        <time>2019-12-04T14:42:28.000Z</time>
      </trkpt>
      <trkpt lat="44.84018" lon="5.07099">
        <ele>642.07</ele>
        <time>2019-12-04T14:42:38.000Z</time>
      </trkpt>
      <trkpt lat="44.84009" lon="5.07104">
        <ele>643.39</ele>
        <time>2019-12-04T14:42:48.000Z</time>
      </trkpt>
      <trkpt lat="44.83997" lon="5.0711">
        <ele>645.01</ele>
        <time>2019-12-04T14:42:58.000Z</time>
      </trkpt>
      <trkpt lat="44.83984" lon="5.07112">
        <ele>644.95</ele>
        <time>2019-12-04T14:43:08.000Z</time>
      </trkpt>
      <trkpt lat="44.83972" lon="5.07115">
        <ele>644.33</ele>
        <time>2019-12-04T14:43:18.000Z</time>
      </trkpt>
      <trkpt lat="44.8396" lon="5.07114">
        <ele>641.9</ele>
        <time>2019-12-04T14:43:28.000Z</time>
      </trkpt>
      <trkpt lat="44.83947" lon="5.07115">
        <ele>639.78</ele>
        <time>2019-12-04T14:43:38.000Z</time>
      </trkpt>
      <trkpt lat="44.83935" lon="5.07118">
        <ele>638.19</ele>
        <time>2019-12-04T14:43:48.000Z</time>
      </trkpt>
      <trkpt lat="44.83924" lon="5.07118">
        <ele>636.57</ele>
        <time>2019-12-04T14:43:58.000Z</time>
      </trkpt>
      <trkpt lat="44.83913" lon="5.07121">
        <ele>636.42</ele>
        <time>2019-12-04T14:44:08.000Z</time>
      </trkpt>
      <trkpt lat="44.839" lon="5.07119">
        <ele>635.29</ele>
        <time>2019-12-04T14:44:18.000Z</time>
      </trkpt>
      <trkpt lat="44.83889" lon="5.07119">
        <ele>634.97</ele>
        <time>2019-12-04T14:44:28.000Z</time>
      </trkpt>
      <trkpt lat="44.83878" lon="5.07117">
        <ele>634.16</ele>
        <time>2019-12-04T14:44:38.000Z</time>
      </trkpt>
      <trkpt lat="44.83866" lon="5.07113">
        <ele>632.95</ele>
        <time>2019-12-04T14:44:48.000Z</time>
      </trkpt>
      <trkpt lat="44.83857" lon="5.0711">
        <ele>632.2</ele>
        <time>2019-12-04T14:44:58.000Z</time>
      </trkpt>
      <trkpt lat="44.83848" lon="5.07105">
        <ele>630.52</ele>
        <time>2019-12-04T14:45:08.000Z</time>
      </trkpt>
      <trkpt lat="44.83835" lon="5.071">
        <ele>628.88</ele>
        <time>2019-12-04T14:45:18.000Z</time>
      </trkpt>
      <trkpt lat="44.83819" lon="5.07093">
        <ele>625.88</ele>
        <time>2019-12-04T14:45:28.000Z</time>
      </trkpt>
      <trkpt lat="44.83809" lon="5.0709">
        <ele>624.36</ele>
        <time>2019-12-04T14:45:39.000Z</time>
      </trkpt>
      <trkpt lat="44.83798" lon="5.07093">
        <ele>624.22</ele>
        <time>2019-12-04T14:45:49.000Z</time>
      </trkpt>
      <trkpt lat="44.83785" lon="5.07097">
        <ele>624.22</ele>
        <time>2019-12-04T14:45:59.000Z</time>
      </trkpt>
      <trkpt lat="44.83773" lon="5.07104">
        <ele>626.01</ele>
        <time>2019-12-04T14:46:09.000Z</time>
      </trkpt>
      <trkpt lat="44.83761" lon="5.0711">
        <ele>627.47</ele>
        <time>2019-12-04T14:46:19.000Z</time>
      </trkpt>
      <trkpt lat="44.83749" lon="5.07115">
        <ele>629.63</ele>
        <time>2019-12-04T14:46:29.000Z</time>
      </trkpt>
      <trkpt lat="44.83739" lon="5.07119">
        <ele>631.46</ele>
        <time>2019-12-04T14:46:39.000Z</time>
      </trkpt>
      <trkpt lat="44.83729" lon="5.07119">
        <ele>632.15</ele>
        <time>2019-12-04T14:46:50.000Z</time>
      </trkpt>
      <trkpt lat="44.8372" lon="5.07118">
        <ele>632.69</ele>
        <time>2019-12-04T14:47:03.000Z</time>
      </trkpt>
      <trkpt lat="44.83711" lon="5.07113">
        <ele>632.42</ele>
        <time>2019-12-04T14:47:13.000Z</time>
      </trkpt>
      <trkpt lat="44.83706" lon="5.07101">
        <ele>631</ele>
        <time>2019-12-04T14:47:27.000Z</time>
      </trkpt>
      <trkpt lat="44.83701" lon="5.07084">
        <ele>628.19</ele>
        <time>2019-12-04T14:47:37.000Z</time>
      </trkpt>
      <trkpt lat="44.83701" lon="5.07068">
        <ele>623.9</ele>
        <time>2019-12-04T14:47:47.000Z</time>
      </trkpt>
      <trkpt lat="44.83698" lon="5.07054">
        <ele>620.8</ele>
        <time>2019-12-04T14:47:57.000Z</time>
      </trkpt>
      <trkpt lat="44.83693" lon="5.07039">
        <ele>617.38</ele>
        <time>2019-12-04T14:48:07.000Z</time>
      </trkpt>
      <trkpt lat="44.83688" lon="5.07026">
        <ele>614.68</ele>
        <time>2019-12-04T14:48:17.000Z</time>
      </trkpt>
      <trkpt lat="44.83682" lon="5.07011">
        <ele>611.76</ele>
        <time>2019-12-04T14:48:27.000Z</time>
      </trkpt>
      <trkpt lat="44.83674" lon="5.07">
        <ele>610.94</ele>
        <time>2019-12-04T14:48:37.000Z</time>
      </trkpt>
      <trkpt lat="44.83667" lon="5.06991">
        <ele>610.79</ele>
        <time>2019-12-04T14:48:48.000Z</time>
      </trkpt>
      <trkpt lat="44.83659" lon="5.06979">
        <ele>610.3</ele>
        <time>2019-12-04T14:48:58.000Z</time>
      </trkpt>
      <trkpt lat="44.83652" lon="5.06968">
        <ele>610.04</ele>
        <time>2019-12-04T14:49:11.000Z</time>
      </trkpt>
      <trkpt lat="44.83645" lon="5.06956">
        <ele>610.44</ele>
        <time>2019-12-04T14:49:21.000Z</time>
      </trkpt>
      <trkpt lat="44.83641" lon="5.06942">
        <ele>609.62</ele>
        <time>2019-12-04T14:49:31.000Z</time>
      </trkpt>
      <trkpt lat="44.83637" lon="5.06927">
        <ele>608.72</ele>
        <time>2019-12-04T14:49:41.000Z</time>
      </trkpt>
      <trkpt lat="44.83636" lon="5.06914">
        <ele>607.15</ele>
        <time>2019-12-04T14:50:12.000Z</time>
      </trkpt>
      <trkpt lat="44.83633" lon="5.06901">
        <ele>606.54</ele>
        <time>2019-12-04T14:52:34.000Z</time>
      </trkpt>
      <trkpt lat="44.83635" lon="5.06889">
        <ele>603.98</ele>
        <time>2019-12-04T14:52:44.000Z</time>
      </trkpt>
      <trkpt lat="44.83633" lon="5.0687">
        <ele>602.89</ele>
        <time>2019-12-04T14:52:54.000Z</time>
      </trkpt>
      <trkpt lat="44.83631" lon="5.06854">
        <ele>601.86</ele>
        <time>2019-12-04T14:53:04.000Z</time>
      </trkpt>
      <trkpt lat="44.83626" lon="5.06836">
        <ele>600.79</ele>
        <time>2019-12-04T14:53:14.000Z</time>
      </trkpt>
      <trkpt lat="44.83618" lon="5.06824">
        <ele>600.67</ele>
        <time>2019-12-04T14:53:24.000Z</time>
      </trkpt>
      <trkpt lat="44.83606" lon="5.06821">
        <ele>602.22</ele>
        <time>2019-12-04T14:53:34.000Z</time>
      </trkpt>
      <trkpt lat="44.83596" lon="5.06822">
        <ele>604.2</ele>
        <time>2019-12-04T14:53:44.000Z</time>
      </trkpt>
      <trkpt lat="44.83584" lon="5.06823">
        <ele>605.59</ele>
        <time>2019-12-04T14:53:54.000Z</time>
      </trkpt>
      <trkpt lat="44.83571" lon="5.06825">
        <ele>606.38</ele>
        <time>2019-12-04T14:54:04.000Z</time>
      </trkpt>
      <trkpt lat="44.83562" lon="5.06826">
        <ele>605.92</ele>
        <time>2019-12-04T14:54:14.000Z</time>
      </trkpt>
      <trkpt lat="44.83551" lon="5.06829">
        <ele>605.56</ele>
        <time>2019-12-04T14:54:25.000Z</time>
      </trkpt>
      <trkpt lat="44.83536" lon="5.06829">
        <ele>602.84</ele>
        <time>2019-12-04T14:54:35.000Z</time>
      </trkpt>
      <trkpt lat="44.83522" lon="5.06829">
        <ele>600.91</ele>
        <time>2019-12-04T14:54:45.000Z</time>
      </trkpt>
      <trkpt lat="44.83509" lon="5.06829">
        <ele>599.81</ele>
        <time>2019-12-04T14:54:55.000Z</time>
      </trkpt>
      <trkpt lat="44.83498" lon="5.06828">
        <ele>599.67</ele>
        <time>2019-12-04T14:55:05.000Z</time>
      </trkpt>
      <trkpt lat="44.83487" lon="5.06823">
        <ele>599.2</ele>
        <time>2019-12-04T14:55:15.000Z</time>
      </trkpt>
      <trkpt lat="44.83473" lon="5.0681">
        <ele>597.95</ele>
        <time>2019-12-04T14:55:25.000Z</time>
      </trkpt>
      <trkpt lat="44.83468" lon="5.06798">
        <ele>596.07</ele>
        <time>2019-12-04T14:55:38.000Z</time>
      </trkpt>
      <trkpt lat="44.83457" lon="5.06782">
        <ele>594.25</ele>
        <time>2019-12-04T14:55:48.000Z</time>
      </trkpt>
      <trkpt lat="44.83448" lon="5.06777">
        <ele>594.67</ele>
        <time>2019-12-04T14:55:58.000Z</time>
      </trkpt>
      <trkpt lat="44.83437" lon="5.06771">
        <ele>595.43</ele>
        <time>2019-12-04T14:56:08.000Z</time>
      </trkpt>
      <trkpt lat="44.83423" lon="5.06765">
        <ele>596.31</ele>
        <time>2019-12-04T14:56:18.000Z</time>
      </trkpt>
      <trkpt lat="44.8341" lon="5.06758">
        <ele>596.85</ele>
        <time>2019-12-04T14:56:28.000Z</time>
      </trkpt>
      <trkpt lat="44.834" lon="5.06751">
        <ele>596.78</ele>
        <time>2019-12-04T14:56:38.000Z</time>
      </trkpt>
      <trkpt lat="44.83389" lon="5.0674">
        <ele>596.51</ele>
        <time>2019-12-04T14:56:48.000Z</time>
      </trkpt>
      <trkpt lat="44.83381" lon="5.06727">
        <ele>595.26</ele>
        <time>2019-12-04T14:56:58.000Z</time>
      </trkpt>
      <trkpt lat="44.83376" lon="5.06712">
        <ele>592.98</ele>
        <time>2019-12-04T14:57:08.000Z</time>
      </trkpt>
      <trkpt lat="44.83371" lon="5.06698">
        <ele>590.86</ele>
        <time>2019-12-04T14:57:18.000Z</time>
      </trkpt>
      <trkpt lat="44.83366" lon="5.06681">
        <ele>588.77</ele>
        <time>2019-12-04T14:57:28.000Z</time>
      </trkpt>
      <trkpt lat="44.83359" lon="5.06666">
        <ele>587.9</ele>
        <time>2019-12-04T14:57:38.000Z</time>
      </trkpt>
      <trkpt lat="44.83352" lon="5.06651">
        <ele>586.78</ele>
        <time>2019-12-04T14:57:48.000Z</time>
      </trkpt>
      <trkpt lat="44.83342" lon="5.06638">
        <ele>586.53</ele>
        <time>2019-12-04T14:57:58.000Z</time>
      </trkpt>
      <trkpt lat="44.83333" lon="5.06622">
        <ele>584.17</ele>
        <time>2019-12-04T14:58:08.000Z</time>
      </trkpt>
      <trkpt lat="44.83325" lon="5.06614">
        <ele>582.27</ele>
        <time>2019-12-04T14:58:18.000Z</time>
      </trkpt>
      <trkpt lat="44.83315" lon="5.06614">
        <ele>581.36</ele>
        <time>2019-12-04T14:58:28.000Z</time>
      </trkpt>
      <trkpt lat="44.83305" lon="5.06612">
        <ele>579.09</ele>
        <time>2019-12-04T14:58:38.000Z</time>
      </trkpt>
      <trkpt lat="44.83294" lon="5.06615">
        <ele>577.52</ele>
        <time>2019-12-04T14:58:48.000Z</time>
      </trkpt>
      <trkpt lat="44.83285" lon="5.06627">
        <ele>578.23</ele>
        <time>2019-12-04T14:58:58.000Z</time>
      </trkpt>
      <trkpt lat="44.83272" lon="5.06629">
        <ele>575.52</ele>
        <time>2019-12-04T14:59:08.000Z</time>
      </trkpt>
      <trkpt lat="44.83263" lon="5.06622">
        <ele>571.88</ele>
        <time>2019-12-04T14:59:18.000Z</time>
      </trkpt>
      <trkpt lat="44.83253" lon="5.06611">
        <ele>567.89</ele>
        <time>2019-12-04T14:59:28.000Z</time>
      </trkpt>
      <trkpt lat="44.83243" lon="5.06599">
        <ele>564.52</ele>
        <time>2019-12-04T14:59:38.000Z</time>
      </trkpt>
      <trkpt lat="44.83234" lon="5.06587">
        <ele>561.86</ele>
        <time>2019-12-04T14:59:48.000Z</time>
      </trkpt>
      <trkpt lat="44.83224" lon="5.06578">
        <ele>560.53</ele>
        <time>2019-12-04T14:59:58.000Z</time>
      </trkpt>
      <trkpt lat="44.83213" lon="5.06569">
        <ele>559.61</ele>
        <time>2019-12-04T15:00:08.000Z</time>
      </trkpt>
      <trkpt lat="44.83203" lon="5.06559">
        <ele>558.53</ele>
        <time>2019-12-04T15:00:18.000Z</time>
      </trkpt>
      <trkpt lat="44.83195" lon="5.06551">
        <ele>557.76</ele>
        <time>2019-12-04T15:01:53.000Z</time>
      </trkpt>
      <trkpt lat="44.83188" lon="5.06542">
        <ele>556.71</ele>
        <time>2019-12-04T15:02:03.000Z</time>
      </trkpt>
      <trkpt lat="44.83176" lon="5.06528">
        <ele>554.91</ele>
        <time>2019-12-04T15:02:13.000Z</time>
      </trkpt>
      <trkpt lat="44.83165" lon="5.06522">
        <ele>554.77</ele>
        <time>2019-12-04T15:02:23.000Z</time>
      </trkpt>
      <trkpt lat="44.83152" lon="5.06522">
        <ele>555.88</ele>
        <time>2019-12-04T15:02:33.000Z</time>
      </trkpt>
      <trkpt lat="44.8314" lon="5.06526">
        <ele>557.46</ele>
        <time>2019-12-04T15:02:43.000Z</time>
      </trkpt>
      <trkpt lat="44.83127" lon="5.06528">
        <ele>558.62</ele>
        <time>2019-12-04T15:02:53.000Z</time>
      </trkpt>
      <trkpt lat="44.83117" lon="5.06523">
        <ele>558.67</ele>
        <time>2019-12-04T15:03:03.000Z</time>
      </trkpt>
      <trkpt lat="44.83108" lon="5.06517">
        <ele>558.82</ele>
        <time>2019-12-04T15:03:14.000Z</time>
      </trkpt>
      <trkpt lat="44.83111" lon="5.06504">
        <ele>556.88</ele>
        <time>2019-12-04T15:03:30.000Z</time>
      </trkpt>
      <trkpt lat="44.83116" lon="5.06491">
        <ele>554.99</ele>
        <time>2019-12-04T15:03:40.000Z</time>
      </trkpt>
      <trkpt lat="44.83116" lon="5.06474">
        <ele>554.11</ele>
        <time>2019-12-04T15:03:50.000Z</time>
      </trkpt>
      <trkpt lat="44.83118" lon="5.0646">
        <ele>553.23</ele>
        <time>2019-12-04T15:04:00.000Z</time>
      </trkpt>
      <trkpt lat="44.83119" lon="5.06445">
        <ele>552.91</ele>
        <time>2019-12-04T15:04:10.000Z</time>
      </trkpt>
      <trkpt lat="44.83122" lon="5.0643">
        <ele>551.63</ele>
        <time>2019-12-04T15:04:20.000Z</time>
      </trkpt>
      <trkpt lat="44.83126" lon="5.06417">
        <ele>550.42</ele>
        <time>2019-12-04T15:04:30.000Z</time>
      </trkpt>
      <trkpt lat="44.83134" lon="5.06403">
        <ele>547.73</ele>
        <time>2019-12-04T15:04:40.000Z</time>
      </trkpt>
      <trkpt lat="44.83137" lon="5.06385">
        <ele>548.59</ele>
        <time>2019-12-04T15:04:50.000Z</time>
      </trkpt>
      <trkpt lat="44.83141" lon="5.06367">
        <ele>549.81</ele>
        <time>2019-12-04T15:05:00.000Z</time>
      </trkpt>
      <trkpt lat="44.83144" lon="5.06352">
        <ele>550.99</ele>
        <time>2019-12-04T15:05:10.000Z</time>
      </trkpt>
      <trkpt lat="44.83147" lon="5.06337">
        <ele>551.77</ele>
        <time>2019-12-04T15:05:20.000Z</time>
      </trkpt>
      <trkpt lat="44.8315" lon="5.06323">
        <ele>552.17</ele>
        <time>2019-12-04T15:05:30.000Z</time>
      </trkpt>
      <trkpt lat="44.83154" lon="5.06307">
        <ele>553.24</ele>
        <time>2019-12-04T15:05:40.000Z</time>
      </trkpt>
      <trkpt lat="44.8316" lon="5.06291">
        <ele>554.06</ele>
        <time>2019-12-04T15:05:50.000Z</time>
      </trkpt>
      <trkpt lat="44.83165" lon="5.06271">
        <ele>555.82</ele>
        <time>2019-12-04T15:06:00.000Z</time>
      </trkpt>
      <trkpt lat="44.83169" lon="5.06254">
        <ele>556.22</ele>
        <time>2019-12-04T15:06:10.000Z</time>
      </trkpt>
      <trkpt lat="44.83172" lon="5.06236">
        <ele>555.66</ele>
        <time>2019-12-04T15:06:20.000Z</time>
      </trkpt>
      <trkpt lat="44.83172" lon="5.06222">
        <ele>555.11</ele>
        <time>2019-12-04T15:06:30.000Z</time>
      </trkpt>
      <trkpt lat="44.83166" lon="5.06212">
        <ele>555.51</ele>
        <time>2019-12-04T15:07:23.000Z</time>
      </trkpt>
      <trkpt lat="44.83156" lon="5.0621">
        <ele>556.73</ele>
        <time>2019-12-04T15:07:33.000Z</time>
      </trkpt>
      <trkpt lat="44.83147" lon="5.06206">
        <ele>557.37</ele>
        <time>2019-12-04T15:07:44.000Z</time>
      </trkpt>
      <trkpt lat="44.83136" lon="5.06206">
        <ele>558.24</ele>
        <time>2019-12-04T15:07:54.000Z</time>
      </trkpt>
      <trkpt lat="44.83122" lon="5.0621">
        <ele>560.05</ele>
        <time>2019-12-04T15:08:04.000Z</time>
      </trkpt>
      <trkpt lat="44.83111" lon="5.06211">
        <ele>560.54</ele>
        <time>2019-12-04T15:08:14.000Z</time>
      </trkpt>
      <trkpt lat="44.83098" lon="5.06215">
        <ele>561.64</ele>
        <time>2019-12-04T15:08:24.000Z</time>
      </trkpt>
      <trkpt lat="44.83085" lon="5.06222">
        <ele>563.02</ele>
        <time>2019-12-04T15:08:34.000Z</time>
      </trkpt>
      <trkpt lat="44.83074" lon="5.06227">
        <ele>563.38</ele>
        <time>2019-12-04T15:08:44.000Z</time>
      </trkpt>
      <trkpt lat="44.83061" lon="5.06233">
        <ele>562.39</ele>
        <time>2019-12-04T15:08:54.000Z</time>
      </trkpt>
      <trkpt lat="44.83051" lon="5.0624">
        <ele>561.84</ele>
        <time>2019-12-04T15:09:04.000Z</time>
      </trkpt>
      <trkpt lat="44.83039" lon="5.06248">
        <ele>560.71</ele>
        <time>2019-12-04T15:09:14.000Z</time>
      </trkpt>
      <trkpt lat="44.83026" lon="5.06256">
        <ele>559.48</ele>
        <time>2019-12-04T15:09:24.000Z</time>
      </trkpt>
      <trkpt lat="44.83014" lon="5.0626">
        <ele>557.66</ele>
        <time>2019-12-04T15:09:34.000Z</time>
      </trkpt>
      <trkpt lat="44.83003" lon="5.06264">
        <ele>556.62</ele>
        <time>2019-12-04T15:09:44.000Z</time>
      </trkpt>
      <trkpt lat="44.8299" lon="5.06267">
        <ele>556.04</ele>
        <time>2019-12-04T15:09:54.000Z</time>
      </trkpt>
      <trkpt lat="44.82979" lon="5.06271">
        <ele>556.15</ele>
        <time>2019-12-04T15:10:04.000Z</time>
      </trkpt>
      <trkpt lat="44.82966" lon="5.06275">
        <ele>556.05</ele>
        <time>2019-12-04T15:10:14.000Z</time>
      </trkpt>
      <trkpt lat="44.82953" lon="5.06276">
        <ele>555.16</ele>
        <time>2019-12-04T15:10:24.000Z</time>
      </trkpt>
      <trkpt lat="44.8294" lon="5.06278">
        <ele>554.84</ele>
        <time>2019-12-04T15:10:34.000Z</time>
      </trkpt>
      <trkpt lat="44.82928" lon="5.06274">
        <ele>552.89</ele>
        <time>2019-12-04T15:10:44.000Z</time>
      </trkpt>
      <trkpt lat="44.82914" lon="5.0627">
        <ele>551.36</ele>
        <time>2019-12-04T15:10:54.000Z</time>
      </trkpt>
      <trkpt lat="44.82904" lon="5.06263">
        <ele>549.75</ele>
        <time>2019-12-04T15:11:04.000Z</time>
      </trkpt>
      <trkpt lat="44.82895" lon="5.06256">
        <ele>548.93</ele>
        <time>2019-12-04T15:11:14.000Z</time>
      </trkpt>
      <trkpt lat="44.82884" lon="5.06246">
        <ele>548.31</ele>
        <time>2019-12-04T15:11:24.000Z</time>
      </trkpt>
      <trkpt lat="44.82876" lon="5.06233">
        <ele>546.75</ele>
        <time>2019-12-04T15:11:34.000Z</time>
      </trkpt>
      <trkpt lat="44.82868" lon="5.06222">
        <ele>546.06</ele>
        <time>2019-12-04T15:11:44.000Z</time>
      </trkpt>
      <trkpt lat="44.82859" lon="5.06217">
        <ele>546.45</ele>
        <time>2019-12-04T15:11:54.000Z</time>
      </trkpt>
      <trkpt lat="44.82849" lon="5.06212">
        <ele>546.6</ele>
        <time>2019-12-04T15:12:04.000Z</time>
      </trkpt>
      <trkpt lat="44.82839" lon="5.06212">
        <ele>547.06</ele>
        <time>2019-12-04T15:12:14.000Z</time>
      </trkpt>
      <trkpt lat="44.82828" lon="5.0622">
        <ele>548.27</ele>
        <time>2019-12-04T15:12:24.000Z</time>
      </trkpt>
      <trkpt lat="44.8282" lon="5.06227">
        <ele>548.68</ele>
        <time>2019-12-04T15:12:39.000Z</time>
      </trkpt>
      <trkpt lat="44.82812" lon="5.06236">
        <ele>548.39</ele>
        <time>2019-12-04T15:13:45.000Z</time>
      </trkpt>
      <trkpt lat="44.82806" lon="5.06245">
        <ele>548.16</ele>
        <time>2019-12-04T15:14:02.000Z</time>
      </trkpt>
      <trkpt lat="44.82799" lon="5.06255">
        <ele>547.89</ele>
        <time>2019-12-04T15:14:29.000Z</time>
      </trkpt>
      <trkpt lat="44.82791" lon="5.06263">
        <ele>545.78</ele>
        <time>2019-12-04T15:14:39.000Z</time>
      </trkpt>
      <trkpt lat="44.82782" lon="5.06272">
        <ele>543.47</ele>
        <time>2019-12-04T15:14:49.000Z</time>
      </trkpt>
      <trkpt lat="44.82775" lon="5.06279">
        <ele>541.59</ele>
        <time>2019-12-04T15:14:59.000Z</time>
      </trkpt>
      <trkpt lat="44.82767" lon="5.0629">
        <ele>540.53</ele>
        <time>2019-12-04T15:15:09.000Z</time>
      </trkpt>
      <trkpt lat="44.82758" lon="5.06298">
        <ele>539.3</ele>
        <time>2019-12-04T15:15:28.000Z</time>
      </trkpt>
      <trkpt lat="44.82752" lon="5.06309">
        <ele>539.81</ele>
        <time>2019-12-04T15:15:38.000Z</time>
      </trkpt>
      <trkpt lat="44.82745" lon="5.06323">
        <ele>541.61</ele>
        <time>2019-12-04T15:15:48.000Z</time>
      </trkpt>
      <trkpt lat="44.82735" lon="5.06331">
        <ele>544.3</ele>
        <time>2019-12-04T15:15:58.000Z</time>
      </trkpt>
      <trkpt lat="44.82726" lon="5.06326">
        <ele>546.36</ele>
        <time>2019-12-04T15:16:19.000Z</time>
      </trkpt>
      <trkpt lat="44.82722" lon="5.06315">
        <ele>546.61</ele>
        <time>2019-12-04T15:16:29.000Z</time>
      </trkpt>
      <trkpt lat="44.82719" lon="5.06296">
        <ele>545.04</ele>
        <time>2019-12-04T15:16:39.000Z</time>
      </trkpt>
      <trkpt lat="44.82718" lon="5.06278">
        <ele>542.99</ele>
        <time>2019-12-04T15:16:49.000Z</time>
      </trkpt>
      <trkpt lat="44.82715" lon="5.0626">
        <ele>541.74</ele>
        <time>2019-12-04T15:16:59.000Z</time>
      </trkpt>
      <trkpt lat="44.82711" lon="5.06242">
        <ele>540.85</ele>
        <time>2019-12-04T15:17:09.000Z</time>
      </trkpt>
      <trkpt lat="44.82707" lon="5.06224">
        <ele>539.54</ele>
        <time>2019-12-04T15:17:19.000Z</time>
      </trkpt>
      <trkpt lat="44.82704" lon="5.06204">
        <ele>537.42</ele>
        <time>2019-12-04T15:17:29.000Z</time>
      </trkpt>
      <trkpt lat="44.82701" lon="5.06188">
        <ele>536.27</ele>
        <time>2019-12-04T15:17:39.000Z</time>
      </trkpt>
      <trkpt lat="44.82701" lon="5.0617">
        <ele>533.95</ele>
        <time>2019-12-04T15:17:49.000Z</time>
      </trkpt>
      <trkpt lat="44.82702" lon="5.06152">
        <ele>532.1</ele>
        <time>2019-12-04T15:17:59.000Z</time>
      </trkpt>
      <trkpt lat="44.82702" lon="5.06134">
        <ele>530.48</ele>
        <time>2019-12-04T15:18:09.000Z</time>
      </trkpt>
      <trkpt lat="44.82702" lon="5.06119">
        <ele>529.97</ele>
        <time>2019-12-04T15:18:19.000Z</time>
      </trkpt>
      <trkpt lat="44.82704" lon="5.06101">
        <ele>528.37</ele>
        <time>2019-12-04T15:18:29.000Z</time>
      </trkpt>
      <trkpt lat="44.82703" lon="5.06086">
        <ele>528.22</ele>
        <time>2019-12-04T15:18:39.000Z</time>
      </trkpt>
      <trkpt lat="44.82704" lon="5.0607">
        <ele>527.34</ele>
        <time>2019-12-04T15:18:49.000Z</time>
      </trkpt>
      <trkpt lat="44.82705" lon="5.06055">
        <ele>526.11</ele>
        <time>2019-12-04T15:18:59.000Z</time>
      </trkpt>
      <trkpt lat="44.82709" lon="5.06041">
        <ele>524.05</ele>
        <time>2019-12-04T15:19:09.000Z</time>
      </trkpt>
      <trkpt lat="44.82706" lon="5.06022">
        <ele>525.15</ele>
        <time>2019-12-04T15:19:19.000Z</time>
      </trkpt>
      <trkpt lat="44.82705" lon="5.05999">
        <ele>525.36</ele>
        <time>2019-12-04T15:19:29.000Z</time>
      </trkpt>
      <trkpt lat="44.82704" lon="5.05981">
        <ele>525.64</ele>
        <time>2019-12-04T15:19:39.000Z</time>
      </trkpt>
      <trkpt lat="44.82702" lon="5.05964">
        <ele>525.73</ele>
        <time>2019-12-04T15:19:49.000Z</time>
      </trkpt>
      <trkpt lat="44.82706" lon="5.05947">
        <ele>524.95</ele>
        <time>2019-12-04T15:19:59.000Z</time>
      </trkpt>
      <trkpt lat="44.8271" lon="5.05929">
        <ele>524.34</ele>
        <time>2019-12-04T15:20:09.000Z</time>
      </trkpt>
      <trkpt lat="44.82713" lon="5.05916">
        <ele>523.69</ele>
        <time>2019-12-04T15:20:20.000Z</time>
      </trkpt>
      <trkpt lat="44.82716" lon="5.05897">
        <ele>522.36</ele>
        <time>2019-12-04T15:20:30.000Z</time>
      </trkpt>
      <trkpt lat="44.82719" lon="5.0588">
        <ele>520.95</ele>
        <time>2019-12-04T15:20:40.000Z</time>
      </trkpt>
      <trkpt lat="44.82724" lon="5.05863">
        <ele>519.73</ele>
        <time>2019-12-04T15:20:50.000Z</time>
      </trkpt>
      <trkpt lat="44.82723" lon="5.05845">
        <ele>517.7</ele>
        <time>2019-12-04T15:21:00.000Z</time>
      </trkpt>
      <trkpt lat="44.82722" lon="5.05827">
        <ele>515.86</ele>
        <time>2019-12-04T15:21:10.000Z</time>
      </trkpt>
      <trkpt lat="44.82721" lon="5.05814">
        <ele>514.47</ele>
        <time>2019-12-04T15:21:20.000Z</time>
      </trkpt>
      <trkpt lat="44.82718" lon="5.05802">
        <ele>512.41</ele>
        <time>2019-12-04T15:21:31.000Z</time>
      </trkpt>
      <trkpt lat="44.82716" lon="5.05789">
        <ele>510.36</ele>
        <time>2019-12-04T15:21:41.000Z</time>
      </trkpt>
      <trkpt lat="44.82717" lon="5.05776">
        <ele>509.81</ele>
        <time>2019-12-04T15:21:52.000Z</time>
      </trkpt>
      <trkpt lat="44.82716" lon="5.05763">
        <ele>507.59</ele>
        <time>2019-12-04T15:22:02.000Z</time>
      </trkpt>
      <trkpt lat="44.82714" lon="5.05748">
        <ele>504.53</ele>
        <time>2019-12-04T15:22:17.000Z</time>
      </trkpt>
      <trkpt lat="44.82711" lon="5.05735">
        <ele>500.63</ele>
        <time>2019-12-04T15:22:45.000Z</time>
      </trkpt>
      <trkpt lat="44.82708" lon="5.05722">
        <ele>496.79</ele>
        <time>2019-12-04T15:22:57.000Z</time>
      </trkpt>
      <trkpt lat="44.82705" lon="5.0571">
        <ele>493.25</ele>
        <time>2019-12-04T15:23:23.000Z</time>
      </trkpt>
      <trkpt lat="44.82702" lon="5.05698">
        <ele>489.54</ele>
        <time>2019-12-04T15:23:40.000Z</time>
      </trkpt>
      <trkpt lat="44.827" lon="5.05684">
        <ele>486.25</ele>
        <time>2019-12-04T15:23:58.000Z</time>
      </trkpt>
      <trkpt lat="44.82698" lon="5.05669">
        <ele>483.3</ele>
        <time>2019-12-04T15:24:08.000Z</time>
      </trkpt>
      <trkpt lat="44.82695" lon="5.05655">
        <ele>480.22</ele>
        <time>2019-12-04T15:24:18.000Z</time>
      </trkpt>
      <trkpt lat="44.82693" lon="5.05642">
        <ele>478.09</ele>
        <time>2019-12-04T15:24:29.000Z</time>
      </trkpt>
      <trkpt lat="44.82687" lon="5.05629">
        <ele>475.05</ele>
        <time>2019-12-04T15:24:39.000Z</time>
      </trkpt>
      <trkpt lat="44.82683" lon="5.05617">
        <ele>472.98</ele>
        <time>2019-12-04T15:24:49.000Z</time>
      </trkpt>
      <trkpt lat="44.82683" lon="5.05603">
        <ele>471.5</ele>
        <time>2019-12-04T15:25:31.000Z</time>
      </trkpt>
      <trkpt lat="44.82679" lon="5.05591">
        <ele>469.33</ele>
        <time>2019-12-04T15:25:43.000Z</time>
      </trkpt>
      <trkpt lat="44.82672" lon="5.05581">
        <ele>466.3</ele>
        <time>2019-12-04T15:25:57.000Z</time>
      </trkpt>
      <trkpt lat="44.82665" lon="5.05572">
        <ele>463.25</ele>
        <time>2019-12-04T15:26:08.000Z</time>
      </trkpt>
      <trkpt lat="44.82658" lon="5.05563">
        <ele>460.16</ele>
        <time>2019-12-04T15:26:19.000Z</time>
      </trkpt>
      <trkpt lat="44.82647" lon="5.05561">
        <ele>456.34</ele>
        <time>2019-12-04T15:26:29.000Z</time>
      </trkpt>
      <trkpt lat="44.82639" lon="5.05556">
        <ele>452.98</ele>
        <time>2019-12-04T15:27:00.000Z</time>
      </trkpt>
      <trkpt lat="44.82634" lon="5.05545">
        <ele>450.49</ele>
        <time>2019-12-04T15:27:11.000Z</time>
      </trkpt>
      <trkpt lat="44.8263" lon="5.05528">
        <ele>448.38</ele>
        <time>2019-12-04T15:27:21.000Z</time>
      </trkpt>
      <trkpt lat="44.82628" lon="5.05512">
        <ele>447</ele>
        <time>2019-12-04T15:27:31.000Z</time>
      </trkpt>
      <trkpt lat="44.82622" lon="5.05496">
        <ele>445.09</ele>
        <time>2019-12-04T15:27:41.000Z</time>
      </trkpt>
      <trkpt lat="44.82612" lon="5.05486">
        <ele>442.89</ele>
        <time>2019-12-04T15:27:51.000Z</time>
      </trkpt>
      <trkpt lat="44.82603" lon="5.05471">
        <ele>441.43</ele>
        <time>2019-12-04T15:28:01.000Z</time>
      </trkpt>
      <trkpt lat="44.82598" lon="5.05454">
        <ele>440.89</ele>
        <time>2019-12-04T15:28:11.000Z</time>
      </trkpt>
      <trkpt lat="44.82597" lon="5.05437">
        <ele>440.92</ele>
        <time>2019-12-04T15:28:21.000Z</time>
      </trkpt>
      <trkpt lat="44.82595" lon="5.05417">
        <ele>440.08</ele>
        <time>2019-12-04T15:28:31.000Z</time>
      </trkpt>
      <trkpt lat="44.82595" lon="5.054">
        <ele>438.64</ele>
        <time>2019-12-04T15:28:41.000Z</time>
      </trkpt>
      <trkpt lat="44.82595" lon="5.05384">
        <ele>436.77</ele>
        <time>2019-12-04T15:28:51.000Z</time>
      </trkpt>
      <trkpt lat="44.82598" lon="5.05367">
        <ele>434.68</ele>
        <time>2019-12-04T15:29:01.000Z</time>
      </trkpt>
      <trkpt lat="44.82605" lon="5.05353">
        <ele>432.65</ele>
        <time>2019-12-04T15:29:11.000Z</time>
      </trkpt>
      <trkpt lat="44.82616" lon="5.0534">
        <ele>430.83</ele>
        <time>2019-12-04T15:29:21.000Z</time>
      </trkpt>
      <trkpt lat="44.82627" lon="5.05332">
        <ele>429.46</ele>
        <time>2019-12-04T15:29:31.000Z</time>
      </trkpt>
      <trkpt lat="44.82637" lon="5.05319">
        <ele>427.5</ele>
        <time>2019-12-04T15:29:41.000Z</time>
      </trkpt>
      <trkpt lat="44.82641" lon="5.05302">
        <ele>425.44</ele>
        <time>2019-12-04T15:29:51.000Z</time>
      </trkpt>
      <trkpt lat="44.82646" lon="5.05285">
        <ele>423.61</ele>
        <time>2019-12-04T15:30:01.000Z</time>
      </trkpt>
      <trkpt lat="44.82651" lon="5.0527">
        <ele>422.36</ele>
        <time>2019-12-04T15:30:11.000Z</time>
      </trkpt>
      <trkpt lat="44.82649" lon="5.0525">
        <ele>421.12</ele>
        <time>2019-12-04T15:30:21.000Z</time>
      </trkpt>
      <trkpt lat="44.82646" lon="5.0523">
        <ele>420.35</ele>
        <time>2019-12-04T15:30:31.000Z</time>
      </trkpt>
      <trkpt lat="44.82642" lon="5.0521">
        <ele>419.67</ele>
        <time>2019-12-04T15:30:41.000Z</time>
      </trkpt>
      <trkpt lat="44.82643" lon="5.05191">
        <ele>419.86</ele>
        <time>2019-12-04T15:30:51.000Z</time>
      </trkpt>
      <trkpt lat="44.82637" lon="5.05172">
        <ele>418.67</ele>
        <time>2019-12-04T15:31:01.000Z</time>
      </trkpt>
      <trkpt lat="44.82629" lon="5.05157">
        <ele>416.74</ele>
        <time>2019-12-04T15:31:11.000Z</time>
      </trkpt>
      <trkpt lat="44.82621" lon="5.05141">
        <ele>416.1</ele>
        <time>2019-12-04T15:31:21.000Z</time>
      </trkpt>
      <trkpt lat="44.82615" lon="5.05125">
        <ele>416.97</ele>
        <time>2019-12-04T15:31:31.000Z</time>
      </trkpt>
      <trkpt lat="44.82607" lon="5.0511">
        <ele>417.56</ele>
        <time>2019-12-04T15:31:41.000Z</time>
      </trkpt>
      <trkpt lat="44.826" lon="5.05096">
        <ele>418.17</ele>
        <time>2019-12-04T15:31:51.000Z</time>
      </trkpt>
      <trkpt lat="44.8259" lon="5.05081">
        <ele>417.39</ele>
        <time>2019-12-04T15:32:01.000Z</time>
      </trkpt>
      <trkpt lat="44.82579" lon="5.05069">
        <ele>415.82</ele>
        <time>2019-12-04T15:32:11.000Z</time>
      </trkpt>
      <trkpt lat="44.82569" lon="5.05058">
        <ele>414.49</ele>
        <time>2019-12-04T15:32:21.000Z</time>
      </trkpt>
      <trkpt lat="44.82558" lon="5.05045">
        <ele>413.15</ele>
        <time>2019-12-04T15:32:31.000Z</time>
      </trkpt>
      <trkpt lat="44.8255" lon="5.0503">
        <ele>412.84</ele>
        <time>2019-12-04T15:32:41.000Z</time>
      </trkpt>
      <trkpt lat="44.82549" lon="5.05018">
        <ele>413.36</ele>
        <time>2019-12-04T15:33:09.000Z</time>
      </trkpt>
      <trkpt lat="44.82554" lon="5.05005">
        <ele>413.49</ele>
        <time>2019-12-04T15:33:19.000Z</time>
      </trkpt>
      <trkpt lat="44.82562" lon="5.04992">
        <ele>412.63</ele>
        <time>2019-12-04T15:33:29.000Z</time>
      </trkpt>
      <trkpt lat="44.82572" lon="5.04977">
        <ele>410.5</ele>
        <time>2019-12-04T15:33:39.000Z</time>
      </trkpt>
      <trkpt lat="44.82581" lon="5.04965">
        <ele>408.3</ele>
        <time>2019-12-04T15:33:49.000Z</time>
      </trkpt>
      <trkpt lat="44.82584" lon="5.04946">
        <ele>403.99</ele>
        <time>2019-12-04T15:33:59.000Z</time>
      </trkpt>
      <trkpt lat="44.82588" lon="5.0493">
        <ele>400.62</ele>
        <time>2019-12-04T15:34:09.000Z</time>
      </trkpt>
      <trkpt lat="44.82593" lon="5.04915">
        <ele>398.5</ele>
        <time>2019-12-04T15:34:19.000Z</time>
      </trkpt>
      <trkpt lat="44.82598" lon="5.04904">
        <ele>397.32</ele>
        <time>2019-12-04T15:34:30.000Z</time>
      </trkpt>
      <trkpt lat="44.82599" lon="5.0489">
        <ele>395.81</ele>
        <time>2019-12-04T15:34:41.000Z</time>
      </trkpt>
      <trkpt lat="44.82601" lon="5.04869">
        <ele>393.89</ele>
        <time>2019-12-04T15:34:51.000Z</time>
      </trkpt>
      <trkpt lat="44.82607" lon="5.0485">
        <ele>392.82</ele>
        <time>2019-12-04T15:35:01.000Z</time>
      </trkpt>
      <trkpt lat="44.82615" lon="5.04833">
        <ele>392.27</ele>
        <time>2019-12-04T15:35:11.000Z</time>
      </trkpt>
      <trkpt lat="44.82622" lon="5.04815">
        <ele>391.49</ele>
        <time>2019-12-04T15:35:21.000Z</time>
      </trkpt>
      <trkpt lat="44.82627" lon="5.04799">
        <ele>390.8</ele>
        <time>2019-12-04T15:35:31.000Z</time>
      </trkpt>
      <trkpt lat="44.82632" lon="5.04782">
        <ele>390.19</ele>
        <time>2019-12-04T15:35:41.000Z</time>
      </trkpt>
      <trkpt lat="44.82634" lon="5.04765">
        <ele>389.81</ele>
        <time>2019-12-04T15:35:51.000Z</time>
      </trkpt>
      <trkpt lat="44.82636" lon="5.04747">
        <ele>389.96</ele>
        <time>2019-12-04T15:36:01.000Z</time>
      </trkpt>
      <trkpt lat="44.82637" lon="5.04727">
        <ele>390.97</ele>
        <time>2019-12-04T15:36:11.000Z</time>
      </trkpt>
      <trkpt lat="44.82636" lon="5.04706">
        <ele>392.65</ele>
        <time>2019-12-04T15:36:21.000Z</time>
      </trkpt>
      <trkpt lat="44.82635" lon="5.04689">
        <ele>394.32</ele>
        <time>2019-12-04T15:36:31.000Z</time>
      </trkpt>
      <trkpt lat="44.82634" lon="5.04673">
        <ele>395.82</ele>
        <time>2019-12-04T15:36:41.000Z</time>
      </trkpt>
      <trkpt lat="44.82632" lon="5.0466">
        <ele>397.05</ele>
        <time>2019-12-04T15:36:52.000Z</time>
      </trkpt>
      <trkpt lat="44.82627" lon="5.04644">
        <ele>398.77</ele>
        <time>2019-12-04T15:37:02.000Z</time>
      </trkpt>
      <trkpt lat="44.82619" lon="5.04633">
        <ele>399.95</ele>
        <time>2019-12-04T15:37:12.000Z</time>
      </trkpt>
      <trkpt lat="44.82611" lon="5.0462">
        <ele>401.26</ele>
        <time>2019-12-04T15:37:22.000Z</time>
      </trkpt>
      <trkpt lat="44.82603" lon="5.04609">
        <ele>402.09</ele>
        <time>2019-12-04T15:37:32.000Z</time>
      </trkpt>
      <trkpt lat="44.82594" lon="5.04598">
        <ele>402.4</ele>
        <time>2019-12-04T15:37:42.000Z</time>
      </trkpt>
      <trkpt lat="44.82585" lon="5.04587">
        <ele>402.05</ele>
        <time>2019-12-04T15:37:52.000Z</time>
      </trkpt>
      <trkpt lat="44.82575" lon="5.04582">
        <ele>400.69</ele>
        <time>2019-12-04T15:38:02.000Z</time>
      </trkpt>
      <trkpt lat="44.82565" lon="5.04578">
        <ele>398.78</ele>
        <time>2019-12-04T15:38:40.000Z</time>
      </trkpt>
      <trkpt lat="44.82555" lon="5.04572">
        <ele>396.07</ele>
        <time>2019-12-04T15:38:50.000Z</time>
      </trkpt>
      <trkpt lat="44.82545" lon="5.04556">
        <ele>392.66</ele>
        <time>2019-12-04T15:39:00.000Z</time>
      </trkpt>
      <trkpt lat="44.82545" lon="5.04538">
        <ele>390.97</ele>
        <time>2019-12-04T15:39:10.000Z</time>
      </trkpt>
      <trkpt lat="44.82548" lon="5.04518">
        <ele>390.15</ele>
        <time>2019-12-04T15:39:20.000Z</time>
      </trkpt>
      <trkpt lat="44.8255" lon="5.04499">
        <ele>390.21</ele>
        <time>2019-12-04T15:39:30.000Z</time>
      </trkpt>
      <trkpt lat="44.8255" lon="5.04479">
        <ele>391.42</ele>
        <time>2019-12-04T15:39:40.000Z</time>
      </trkpt>
      <trkpt lat="44.82546" lon="5.04462">
        <ele>392.77</ele>
        <time>2019-12-04T15:39:50.000Z</time>
      </trkpt>
      <trkpt lat="44.82544" lon="5.04445">
        <ele>394.42</ele>
        <time>2019-12-04T15:40:00.000Z</time>
      </trkpt>
      <trkpt lat="44.82537" lon="5.04428">
        <ele>395.05</ele>
        <time>2019-12-04T15:40:10.000Z</time>
      </trkpt>
      <trkpt lat="44.8253" lon="5.04415">
        <ele>394.31</ele>
        <time>2019-12-04T15:40:20.000Z</time>
      </trkpt>
      <trkpt lat="44.82518" lon="5.04406">
        <ele>392.75</ele>
        <time>2019-12-04T15:40:30.000Z</time>
      </trkpt>
      <trkpt lat="44.82509" lon="5.04397">
        <ele>391.09</ele>
        <time>2019-12-04T15:40:40.000Z</time>
      </trkpt>
      <trkpt lat="44.82497" lon="5.04388">
        <ele>389.2</ele>
        <time>2019-12-04T15:40:50.000Z</time>
      </trkpt>
      <trkpt lat="44.82484" lon="5.04381">
        <ele>387.79</ele>
        <time>2019-12-04T15:41:00.000Z</time>
      </trkpt>
      <trkpt lat="44.82471" lon="5.04376">
        <ele>386.85</ele>
        <time>2019-12-04T15:41:10.000Z</time>
      </trkpt>
      <trkpt lat="44.82465" lon="5.04366">
        <ele>385.02</ele>
        <time>2019-12-04T15:41:39.000Z</time>
      </trkpt>
      <trkpt lat="44.82455" lon="5.04363">
        <ele>384.66</ele>
        <time>2019-12-04T15:41:49.000Z</time>
      </trkpt>
      <trkpt lat="44.82441" lon="5.04363">
        <ele>385.47</ele>
        <time>2019-12-04T15:41:59.000Z</time>
      </trkpt>
      <trkpt lat="44.82429" lon="5.04369">
        <ele>387.22</ele>
        <time>2019-12-04T15:42:09.000Z</time>
      </trkpt>
      <trkpt lat="44.82417" lon="5.04371">
        <ele>388.39</ele>
        <time>2019-12-04T15:42:19.000Z</time>
      </trkpt>
      <trkpt lat="44.82404" lon="5.04374">
        <ele>389.76</ele>
        <time>2019-12-04T15:42:29.000Z</time>
      </trkpt>
      <trkpt lat="44.8239" lon="5.04379">
        <ele>391.33</ele>
        <time>2019-12-04T15:42:39.000Z</time>
      </trkpt>
      <trkpt lat="44.82378" lon="5.04382">
        <ele>392.5</ele>
        <time>2019-12-04T15:42:49.000Z</time>
      </trkpt>
      <trkpt lat="44.82365" lon="5.04384">
        <ele>393.26</ele>
        <time>2019-12-04T15:42:59.000Z</time>
      </trkpt>
      <trkpt lat="44.82353" lon="5.04382">
        <ele>394.05</ele>
        <time>2019-12-04T15:43:09.000Z</time>
      </trkpt>
      <trkpt lat="44.82344" lon="5.04376">
        <ele>395.12</ele>
        <time>2019-12-04T15:43:19.000Z</time>
      </trkpt>
      <trkpt lat="44.82348" lon="5.04363">
        <ele>396.4</ele>
        <time>2019-12-04T15:43:31.000Z</time>
      </trkpt>
      <trkpt lat="44.82357" lon="5.04355">
        <ele>395.87</ele>
        <time>2019-12-04T15:43:41.000Z</time>
      </trkpt>
      <trkpt lat="44.82368" lon="5.04355">
        <ele>394.13</ele>
        <time>2019-12-04T15:43:51.000Z</time>
      </trkpt>
      <trkpt lat="44.82376" lon="5.04351">
        <ele>392.33</ele>
        <time>2019-12-04T15:44:12.000Z</time>
      </trkpt>
      <trkpt lat="44.82382" lon="5.0434">
        <ele>390.24</ele>
        <time>2019-12-04T15:44:23.000Z</time>
      </trkpt>
      <trkpt lat="44.82385" lon="5.04328">
        <ele>387.97</ele>
        <time>2019-12-04T15:44:44.000Z</time>
      </trkpt>
      <trkpt lat="44.82386" lon="5.04315">
        <ele>385.12</ele>
        <time>2019-12-04T15:44:59.000Z</time>
      </trkpt>
      <trkpt lat="44.82389" lon="5.04299">
        <ele>380.83</ele>
        <time>2019-12-04T15:45:09.000Z</time>
      </trkpt>
      <trkpt lat="44.8239" lon="5.04286">
        <ele>377.08</ele>
        <time>2019-12-04T15:45:21.000Z</time>
      </trkpt>
      <trkpt lat="44.82386" lon="5.04275">
        <ele>375.09</ele>
        <time>2019-12-04T15:45:31.000Z</time>
      </trkpt>
      <trkpt lat="44.82384" lon="5.04261">
        <ele>372.13</ele>
        <time>2019-12-04T15:45:46.000Z</time>
      </trkpt>
      <trkpt lat="44.82379" lon="5.04248">
        <ele>370.39</ele>
        <time>2019-12-04T15:45:56.000Z</time>
      </trkpt>
      <trkpt lat="44.82375" lon="5.04236">
        <ele>368.35</ele>
        <time>2019-12-04T15:46:08.000Z</time>
      </trkpt>
      <trkpt lat="44.82373" lon="5.04222">
        <ele>365.5</ele>
        <time>2019-12-04T15:46:28.000Z</time>
      </trkpt>
      <trkpt lat="44.82372" lon="5.04209">
        <ele>362.46</ele>
        <time>2019-12-04T15:46:39.000Z</time>
      </trkpt>
      <trkpt lat="44.82368" lon="5.04194">
        <ele>359.59</ele>
        <time>2019-12-04T15:46:49.000Z</time>
      </trkpt>
      <trkpt lat="44.82361" lon="5.04185">
        <ele>358.29</ele>
        <time>2019-12-04T15:46:59.000Z</time>
      </trkpt>
      <trkpt lat="44.82365" lon="5.04173">
        <ele>354.85</ele>
        <time>2019-12-04T15:47:10.000Z</time>
      </trkpt>
      <trkpt lat="44.8237" lon="5.04162">
        <ele>351.74</ele>
        <time>2019-12-04T15:47:20.000Z</time>
      </trkpt>
      <trkpt lat="44.82367" lon="5.04149">
        <ele>349.27</ele>
        <time>2019-12-04T15:47:35.000Z</time>
      </trkpt>
      <trkpt lat="44.82368" lon="5.04136">
        <ele>346.45</ele>
        <time>2019-12-04T15:47:49.000Z</time>
      </trkpt>
      <trkpt lat="44.82367" lon="5.04122">
        <ele>344.08</ele>
        <time>2019-12-04T15:47:59.000Z</time>
      </trkpt>
      <trkpt lat="44.82365" lon="5.04108">
        <ele>341.81</ele>
        <time>2019-12-04T15:48:09.000Z</time>
      </trkpt>
      <trkpt lat="44.82361" lon="5.04095">
        <ele>339.97</ele>
        <time>2019-12-04T15:48:19.000Z</time>
      </trkpt>
      <trkpt lat="44.82356" lon="5.04083">
        <ele>338.79</ele>
        <time>2019-12-04T15:48:29.000Z</time>
      </trkpt>
      <trkpt lat="44.82349" lon="5.04072">
        <ele>338.2</ele>
        <time>2019-12-04T15:48:39.000Z</time>
      </trkpt>
      <trkpt lat="44.82342" lon="5.04058">
        <ele>337.02</ele>
        <time>2019-12-04T15:48:49.000Z</time>
      </trkpt>
      <trkpt lat="44.82338" lon="5.0404">
        <ele>335.47</ele>
        <time>2019-12-04T15:48:59.000Z</time>
      </trkpt>
      <trkpt lat="44.82335" lon="5.04026">
        <ele>334.32</ele>
        <time>2019-12-04T15:49:09.000Z</time>
      </trkpt>
      <trkpt lat="44.8233" lon="5.04013">
        <ele>333.46</ele>
        <time>2019-12-04T15:49:19.000Z</time>
      </trkpt>
      <trkpt lat="44.82323" lon="5.03997">
        <ele>332.4</ele>
        <time>2019-12-04T15:49:29.000Z</time>
      </trkpt>
      <trkpt lat="44.82317" lon="5.0398">
        <ele>331.16</ele>
        <time>2019-12-04T15:49:39.000Z</time>
      </trkpt>
      <trkpt lat="44.82312" lon="5.03964">
        <ele>329.98</ele>
        <time>2019-12-04T15:49:49.000Z</time>
      </trkpt>
      <trkpt lat="44.82323" lon="5.03961">
        <ele>329.27</ele>
        <time>2019-12-04T15:49:59.000Z</time>
      </trkpt>
      <trkpt lat="44.82333" lon="5.03969">
        <ele>329.23</ele>
        <time>2019-12-04T15:50:09.000Z</time>
      </trkpt>
      <trkpt lat="44.82344" lon="5.03976">
        <ele>328.67</ele>
        <time>2019-12-04T15:50:19.000Z</time>
      </trkpt>
      <trkpt lat="44.82353" lon="5.03976">
        <ele>327.28</ele>
        <time>2019-12-04T15:50:29.000Z</time>
      </trkpt>
      <trkpt lat="44.82362" lon="5.03966">
        <ele>324.98</ele>
        <time>2019-12-04T15:50:39.000Z</time>
      </trkpt>
      <trkpt lat="44.82369" lon="5.03952">
        <ele>322.8</ele>
        <time>2019-12-04T15:50:49.000Z</time>
      </trkpt>
      <trkpt lat="44.82375" lon="5.03935">
        <ele>320.97</ele>
        <time>2019-12-04T15:50:59.000Z</time>
      </trkpt>
      <trkpt lat="44.82373" lon="5.03922">
        <ele>320.6</ele>
        <time>2019-12-04T15:51:09.000Z</time>
      </trkpt>
      <trkpt lat="44.8237" lon="5.03922">
        <ele>321.05</ele>
        <time>2019-12-04T15:51:34.000Z</time>
      </trkpt>
    </trkseg>
  </trk>
</gpx>